Wetterdaten: Dienstag, 04.11.2014
Datum Zeit Temp. Aussen +5cm Feuchte Auss Luftdruck Regen Sonnenschein Regendauer Solar Windben
04.11.2014 00:00 10,8 C 8,9 C 90 % 993,3 hPa 0,0 l/m 0 min 2 min 0 W/m 12,6 km/h (3 Bft)
04.11.2014 00:02 10,7 C 8,9 C 90 % 993,3 hPa 0,0 l/m 0 min 2 min 0 W/m 12,6 km/h (3 Bft)
04.11.2014 00:05 10,6 C 8,9 C 90 % 993,3 hPa 0,4 l/m 0 min 2 min 0 W/m 8,4 km/h (2 Bft)
04.11.2014 00:06 10,5 C 8,9 C 91 % 993,2 hPa 0,4 l/m 0 min 1 min 0 W/m 8,4 km/h (2 Bft)
04.11.2014 00:08 10,5 C 8,9 C 91 % 993,3 hPa 0,0 l/m 0 min 2 min 0 W/m 10,5 km/h (2 Bft)
04.11.2014 00:10 10,4 C 8,9 C 91 % 993,3 hPa 0,0 l/m 0 min 2 min 0 W/m 8,4 km/h (2 Bft)
04.11.2014 00:12 10,4 C 8,9 C 91 % 993,3 hPa 0,0 l/m 0 min 2 min 0 W/m 10,5 km/h (2 Bft)
04.11.2014 00:14 10,4 C 8,9 C 91 % 993,3 hPa 0,0 l/m 0 min 2 min 0 W/m 10,5 km/h (2 Bft)
04.11.2014 00:16 10,3 C 8,9 C 91 % 993,3 hPa 0,0 l/m 0 min 2 min 0 W/m 6,3 km/h (2 Bft)
04.11.2014 00:18 10,3 C 8,9 C 91 % 993,3 hPa 0,0 l/m 0 min 2 min 0 W/m 6,3 km/h (2 Bft)
04.11.2014 00:20 10,3 C 8,9 C 92 % 993,2 hPa 0,0 l/m 0 min 2 min 0 W/m 6,3 km/h (2 Bft)
04.11.2014 00:22 10,2 C 8,3 C 92 % 993,3 hPa 0,0 l/m 0 min 2 min 0 W/m 6,3 km/h (2 Bft)
04.11.2014 00:24 10,2 C 8,3 C 92 % 993,3 hPa 0,0 l/m 0 min 2 min 0 W/m 6,3 km/h (2 Bft)
04.11.2014 00:26 10,2 C 8,3 C 92 % 993,3 hPa 0,0 l/m 0 min 2 min 0 W/m 6,3 km/h (2 Bft)
04.11.2014 00:28 10,2 C 8,3 C 92 % 993,3 hPa 0,2 l/m 0 min 2 min 0 W/m 6,3 km/h (2 Bft)
04.11.2014 00:30 10,1 C 8,9 C 92 % 993,3 hPa 0,0 l/m 0 min 2 min 0 W/m 12,6 km/h (3 Bft)
04.11.2014 00:32 10,1 C 8,9 C 92 % 993,3 hPa 0,2 l/m 0 min 2 min 0 W/m 10,5 km/h (2 Bft)
04.11.2014 00:34 10,1 C 8,3 C 92 % 993,3 hPa 0,0 l/m 0 min 2 min 0 W/m 10,5 km/h (2 Bft)
04.11.2014 00:36 10,1 C 8,3 C 93 % 993,3 hPa 0,0 l/m 0 min 2 min 0 W/m 12,6 km/h (3 Bft)
04.11.2014 00:38 10,0 C 8,3 C 93 % 993,3 hPa 0,0 l/m 0 min 2 min 0 W/m 14,6 km/h (3 Bft)
04.11.2014 00:40 10,0 C 8,3 C 93 % 993,3 hPa 0,2 l/m 0 min 2 min 0 W/m 14,6 km/h (3 Bft)
04.11.2014 00:42 10,0 C 8,3 C 93 % 993,2 hPa 0,0 l/m 0 min 2 min 0 W/m 10,5 km/h (2 Bft)
04.11.2014 00:44 10,0 C 8,3 C 93 % 993,2 hPa 0,0 l/m 0 min 2 min 0 W/m 10,5 km/h (2 Bft)
04.11.2014 00:46 9,9 C 8,9 C 93 % 993,1 hPa 0,0 l/m 0 min 2 min 0 W/m 10,5 km/h (2 Bft)
04.11.2014 00:48 9,9 C 8,9 C 93 % 993,1 hPa 0,0 l/m 0 min 2 min 0 W/m 8,4 km/h (2 Bft)
04.11.2014 00:50 9,9 C 8,3 C 93 % 993,0 hPa 0,2 l/m 0 min 2 min 0 W/m 4,2 km/h (1 Bft)
04.11.2014 00:52 9,9 C 8,3 C 93 % 993,0 hPa 0,0 l/m 0 min 2 min 0 W/m 4,2 km/h (1 Bft)
04.11.2014 00:54 9,9 C 8,3 C 93 % 993,0 hPa 0,0 l/m 0 min 2 min 0 W/m 8,4 km/h (2 Bft)
04.11.2014 00:56 9,9 C 8,9 C 93 % 993,1 hPa 0,0 l/m 0 min 2 min 0 W/m 6,3 km/h (2 Bft)
04.11.2014 00:58 9,9 C 8,9 C 93 % 993,1 hPa 0,0 l/m 0 min 2 min 0 W/m 8,4 km/h (2 Bft)
04.11.2014 01:00 9,9 C 8,9 C 94 % 993,1 hPa 0,2 l/m 0 min 2 min 0 W/m 4,2 km/h (1 Bft)
04.11.2014 01:02 9,9 C 8,9 C 94 % 993,0 hPa 0,0 l/m 0 min 2 min 0 W/m 6,3 km/h (2 Bft)
04.11.2014 01:04 9,9 C 8,3 C 94 % 992,9 hPa 0,0 l/m 0 min 2 min 0 W/m 2,1 km/h (1 Bft)
04.11.2014 01:06 9,9 C 8,3 C 94 % 992,9 hPa 0,2 l/m 0 min 2 min 0 W/m 4,2 km/h (1 Bft)
04.11.2014 01:08 9,8 C 8,3 C 94 % 992,9 hPa 0,0 l/m 0 min 2 min 0 W/m 4,2 km/h (1 Bft)
04.11.2014 01:10 9,8 C 8,9 C 94 % 993,0 hPa 0,0 l/m 0 min 2 min 0 W/m 4,2 km/h (1 Bft)
04.11.2014 01:12 9,8 C 8,9 C 94 % 992,9 hPa 0,0 l/m 0 min 2 min 0 W/m 8,4 km/h (2 Bft)
04.11.2014 01:14 9,8 C 8,9 C 94 % 992,9 hPa 0,0 l/m 0 min 2 min 0 W/m 8,4 km/h (2 Bft)
04.11.2014 01:16 9,8 C 8,9 C 94 % 992,9 hPa 0,0 l/m 0 min 2 min 0 W/m 8,4 km/h (2 Bft)
04.11.2014 01:18 9,8 C 8,9 C 94 % 992,9 hPa 0,0 l/m 0 min 2 min 0 W/m 6,3 km/h (2 Bft)
04.11.2014 01:20 9,8 C 8,9 C 94 % 993,0 hPa 0,0 l/m 0 min 2 min 0 W/m 6,3 km/h (2 Bft)
04.11.2014 01:22 9,8 C 8,9 C 94 % 993,0 hPa 0,0 l/m 0 min 2 min 0 W/m 8,4 km/h (2 Bft)
04.11.2014 01:24 9,8 C 8,9 C 94 % 993,0 hPa 0,0 l/m 0 min 2 min 0 W/m 6,3 km/h (2 Bft)
04.11.2014 01:26 9,8 C 8,9 C 94 % 993,0 hPa 0,0 l/m 0 min 2 min 0 W/m 10,5 km/h (2 Bft)
04.11.2014 01:28 9,8 C 8,9 C 94 % 993,2 hPa 0,0 l/m 0 min 2 min 0 W/m 8,4 km/h (2 Bft)
04.11.2014 01:30 9,8 C 8,9 C 94 % 993,1 hPa 0,0 l/m 0 min 2 min 0 W/m 12,6 km/h (3 Bft)
04.11.2014 01:32 9,8 C 8,9 C 94 % 993,1 hPa 0,0 l/m 0 min 2 min 0 W/m 8,4 km/h (2 Bft)
04.11.2014 01:34 9,8 C 8,9 C 94 % 993,2 hPa 0,2 l/m 0 min 2 min 0 W/m 10,5 km/h (2 Bft)
04.11.2014 01:36 9,8 C 8,9 C 94 % 993,2 hPa 0,0 l/m 0 min 2 min 0 W/m 6,3 km/h (2 Bft)
04.11.2014 01:38 9,8 C 8,9 C 94 % 993,1 hPa 0,0 l/m 0 min 2 min 0 W/m 8,4 km/h (2 Bft)
04.11.2014 01:40 9,8 C 8,9 C 95 % 993,0 hPa 0,0 l/m 0 min 2 min 0 W/m 6,3 km/h (2 Bft)
04.11.2014 01:42 9,8 C 8,9 C 95 % 993,0 hPa 0,0 l/m 0 min 2 min 0 W/m 8,4 km/h (2 Bft)
04.11.2014 01:44 9,8 C 8,9 C 95 % 993,0 hPa 0,2 l/m 0 min 2 min 0 W/m 10,5 km/h (2 Bft)
04.11.2014 01:46 9,7 C 8,9 C 95 % 993,1 hPa 0,0 l/m 0 min 2 min 0 W/m 10,5 km/h (2 Bft)
04.11.2014 01:48 9,7 C 8,9 C 95 % 993,0 hPa 0,0 l/m 0 min 2 min 0 W/m 8,4 km/h (2 Bft)
04.11.2014 01:50 9,7 C 8,9 C 95 % 993,1 hPa 0,0 l/m 0 min 2 min 0 W/m 6,3 km/h (2 Bft)
04.11.2014 01:52 9,7 C 8,3 C 95 % 993,1 hPa 0,0 l/m 0 min 2 min 0 W/m 8,4 km/h (2 Bft)
04.11.2014 01:54 9,7 C 8,9 C 95 % 993,1 hPa 0,0 l/m 0 min 2 min 0 W/m 8,4 km/h (2 Bft)
04.11.2014 01:56 9,7 C 8,9 C 95 % 993,1 hPa 0,0 l/m 0 min 2 min 0 W/m 10,5 km/h (2 Bft)
04.11.2014 01:58 9,7 C 8,9 C 95 % 993,1 hPa 0,0 l/m 0 min 2 min 0 W/m 10,5 km/h (2 Bft)
04.11.2014 02:00 9,7 C 8,9 C 95 % 993,3 hPa 0,0 l/m 0 min 2 min 0 W/m 8,4 km/h (2 Bft)
04.11.2014 02:02 9,7 C 8,9 C 95 % 993,3 hPa 0,0 l/m 0 min 2 min 0 W/m 10,5 km/h (2 Bft)
04.11.2014 02:04 9,7 C 8,9 C 95 % 993,3 hPa 0,0 l/m 0 min 2 min 0 W/m 8,4 km/h (2 Bft)
04.11.2014 02:06 9,7 C 8,9 C 95 % 993,2 hPa 0,0 l/m 0 min 2 min 0 W/m 8,4 km/h (2 Bft)
04.11.2014 02:08 9,8 C 8,9 C 95 % 993,3 hPa 0,0 l/m 0 min 2 min 0 W/m 10,5 km/h (2 Bft)
04.11.2014 02:10 9,8 C 8,9 C 95 % 993,2 hPa 0,0 l/m 0 min 2 min 0 W/m 14,6 km/h (3 Bft)
04.11.2014 02:12 9,8 C 8,9 C 95 % 993,2 hPa 0,0 l/m 0 min 2 min 0 W/m 12,6 km/h (3 Bft)
04.11.2014 02:14 9,8 C 8,9 C 95 % 993,2 hPa 0,0 l/m 0 min 2 min 0 W/m 12,6 km/h (3 Bft)
04.11.2014 02:16 9,8 C 8,9 C 95 % 993,2 hPa 0,2 l/m 0 min 2 min 0 W/m 10,5 km/h (2 Bft)
04.11.2014 02:18 9,8 C 8,9 C 95 % 993,2 hPa 0,0 l/m 0 min 2 min 0 W/m 10,5 km/h (2 Bft)
04.11.2014 02:20 9,8 C 8,9 C 95 % 993,0 hPa 0,0 l/m 0 min 2 min 0 W/m 8,4 km/h (2 Bft)
04.11.2014 02:22 9,8 C 8,9 C 96 % 993,0 hPa 0,0 l/m 0 min 2 min 0 W/m 12,6 km/h (3 Bft)
04.11.2014 02:24 9,8 C 8,9 C 96 % 993,0 hPa 0,2 l/m 0 min 2 min 0 W/m 6,3 km/h (2 Bft)
04.11.2014 02:26 9,8 C 8,9 C 96 % 993,0 hPa 0,0 l/m 0 min 2 min 0 W/m 6,3 km/h (2 Bft)
04.11.2014 02:28 9,8 C 8,9 C 96 % 993,0 hPa 0,0 l/m 0 min 2 min 0 W/m 8,4 km/h (2 Bft)
04.11.2014 02:30 9,8 C 8,9 C 96 % 993,0 hPa 0,0 l/m 0 min 2 min 0 W/m 8,4 km/h (2 Bft)
04.11.2014 02:32 9,8 C 8,9 C 96 % 992,9 hPa 0,0 l/m 0 min 2 min 0 W/m 8,4 km/h (2 Bft)
04.11.2014 02:34 9,8 C 8,9 C 96 % 992,8 hPa 0,0 l/m 0 min 2 min 0 W/m 10,5 km/h (2 Bft)
04.11.2014 02:36 9,8 C 8,9 C 96 % 992,8 hPa 0,0 l/m 0 min 2 min 0 W/m 6,3 km/h (2 Bft)
04.11.2014 02:38 9,8 C 8,3 C 96 % 992,9 hPa 0,0 l/m 0 min 2 min 0 W/m 10,5 km/h (2 Bft)
04.11.2014 02:40 9,8 C 8,3 C 96 % 992,9 hPa 0,0 l/m 0 min 2 min 0 W/m 8,4 km/h (2 Bft)
04.11.2014 02:42 9,8 C 8,9 C 96 % 992,9 hPa 0,0 l/m 0 min 2 min 0 W/m 8,4 km/h (2 Bft)
04.11.2014 02:44 9,8 C 8,9 C 96 % 993,0 hPa 0,0 l/m 0 min 2 min 0 W/m 6,3 km/h (2 Bft)
04.11.2014 02:46 9,8 C 8,9 C 96 % 993,1 hPa 0,0 l/m 0 min 2 min 0 W/m 6,3 km/h (2 Bft)
04.11.2014 02:48 9,7 C 8,9 C 96 % 993,0 hPa 0,0 l/m 0 min 2 min 0 W/m 8,4 km/h (2 Bft)
04.11.2014 02:50 9,7 C 8,9 C 96 % 993,0 hPa 0,0 l/m 0 min 2 min 0 W/m 6,3 km/h (2 Bft)
04.11.2014 02:52 9,7 C 8,9 C 96 % 992,9 hPa 0,0 l/m 0 min 2 min 0 W/m 10,5 km/h (2 Bft)
04.11.2014 02:54 9,7 C 8,9 C 96 % 993,0 hPa 0,0 l/m 0 min 2 min 0 W/m 10,5 km/h (2 Bft)
04.11.2014 02:56 9,7 C 8,9 C 96 % 993,0 hPa 0,0 l/m 0 min 2 min 0 W/m 10,5 km/h (2 Bft)
04.11.2014 02:58 9,7 C 8,3 C 96 % 993,0 hPa 0,0 l/m 0 min 2 min 0 W/m 10,5 km/h (2 Bft)
04.11.2014 03:00 9,7 C 8,3 C 96 % 993,1 hPa 0,2 l/m 0 min 2 min 0 W/m 8,4 km/h (2 Bft)
04.11.2014 03:02 9,7 C 8,3 C 96 % 993,1 hPa 0,0 l/m 0 min 2 min 0 W/m 8,4 km/h (2 Bft)
04.11.2014 03:04 9,7 C 8,3 C 96 % 993,0 hPa 0,0 l/m 0 min 2 min 0 W/m 8,4 km/h (2 Bft)
04.11.2014 03:06 9,7 C 8,9 C 96 % 993,1 hPa 0,0 l/m 0 min 2 min 0 W/m 14,6 km/h (3 Bft)
04.11.2014 03:08 9,7 C 8,9 C 96 % 993,0 hPa 0,0 l/m 0 min 2 min 0 W/m 6,3 km/h (2 Bft)
04.11.2014 03:10 9,7 C 8,9 C 96 % 992,9 hPa 0,0 l/m 0 min 2 min 0 W/m 12,6 km/h (3 Bft)
04.11.2014 03:12 9,7 C 8,9 C 96 % 992,9 hPa 0,0 l/m 0 min 2 min 0 W/m 14,6 km/h (3 Bft)
04.11.2014 03:14 9,7 C 8,9 C 96 % 992,9 hPa 0,0 l/m 0 min 2 min 0 W/m 12,6 km/h (3 Bft)
04.11.2014 03:16 9,7 C 8,9 C 96 % 992,9 hPa 0,0 l/m 0 min 2 min 0 W/m 8,4 km/h (2 Bft)
04.11.2014 03:18 9,7 C 8,9 C 96 % 992,8 hPa 0,0 l/m 0 min 2 min 0 W/m 12,6 km/h (3 Bft)
04.11.2014 03:20 9,7 C 8,3 C 96 % 992,9 hPa 0,2 l/m 0 min 2 min 0 W/m 10,5 km/h (2 Bft)
04.11.2014 03:22 9,7 C 8,3 C 96 % 992,9 hPa 0,0 l/m 0 min 2 min 0 W/m 8,4 km/h (2 Bft)
04.11.2014 03:24 9,7 C 8,3 C 96 % 992,8 hPa 0,0 l/m 0 min 2 min 0 W/m 6,3 km/h (2 Bft)
04.11.2014 03:26 9,7 C 8,3 C 96 % 992,8 hPa 0,0 l/m 0 min 2 min 0 W/m 8,4 km/h (2 Bft)
04.11.2014 03:28 9,6 C 8,3 C 96 % 992,8 hPa 0,0 l/m 0 min 2 min 0 W/m 10,5 km/h (2 Bft)
04.11.2014 03:30 9,7 C 8,3 C 96 % 992,7 hPa 0,0 l/m 0 min 2 min 0 W/m 8,4 km/h (2 Bft)
04.11.2014 03:32 9,6 C 8,3 C 96 % 992,7 hPa 0,0 l/m 0 min 2 min 0 W/m 10,5 km/h (2 Bft)
04.11.2014 03:34 9,6 C 8,3 C 96 % 992,7 hPa 0,0 l/m 0 min 2 min 0 W/m 8,4 km/h (2 Bft)
04.11.2014 03:36 9,6 C 8,3 C 96 % 992,7 hPa 0,0 l/m 0 min 2 min 0 W/m 10,5 km/h (2 Bft)
04.11.2014 03:38 9,6 C 8,3 C 96 % 992,7 hPa 0,0 l/m 0 min 2 min 0 W/m 8,4 km/h (2 Bft)
04.11.2014 03:40 9,6 C 8,3 C 96 % 992,7 hPa 0,0 l/m 0 min 2 min 0 W/m 8,4 km/h (2 Bft)
04.11.2014 03:42 9,6 C 8,3 C 96 % 992,7 hPa 0,0 l/m 0 min 2 min 0 W/m 8,4 km/h (2 Bft)
04.11.2014 03:44 9,6 C 8,3 C 96 % 992,7 hPa 0,0 l/m 0 min 2 min 0 W/m 6,3 km/h (2 Bft)
04.11.2014 03:46 9,6 C 8,3 C 96 % 992,7 hPa 0,0 l/m 0 min 2 min 0 W/m 8,4 km/h (2 Bft)
04.11.2014 03:48 9,6 C 8,3 C 96 % 992,7 hPa 0,0 l/m 0 min 2 min 0 W/m 4,2 km/h (1 Bft)
04.11.2014 03:50 9,6 C 8,3 C 96 % 992,7 hPa 0,0 l/m 0 min 2 min 0 W/m 8,4 km/h (2 Bft)
04.11.2014 03:52 9,5 C 8,3 C 96 % 992,7 hPa 0,0 l/m 0 min 2 min 0 W/m 10,5 km/h (2 Bft)
04.11.2014 03:54 9,6 C 8,3 C 96 % 992,7 hPa 0,0 l/m 0 min 2 min 0 W/m 8,4 km/h (2 Bft)
04.11.2014 03:56 9,5 C 8,3 C 96 % 992,8 hPa 0,0 l/m 0 min 2 min 0 W/m 10,5 km/h (2 Bft)
04.11.2014 03:58 9,5 C 8,3 C 96 % 992,7 hPa 0,0 l/m 0 min 2 min 0 W/m 10,5 km/h (2 Bft)
04.11.2014 04:00 9,5 C 8,3 C 96 % 992,7 hPa 0,0 l/m 0 min 2 min 0 W/m 8,4 km/h (2 Bft)
04.11.2014 04:05 9,5 C 8,3 C 96 % 992,8 hPa 0,0 l/m 0 min 0 min 0 W/m 10,5 km/h (2 Bft)
04.11.2014 04:06 9,5 C 8,3 C 96 % 992,8 hPa 0,0 l/m 0 min 0 min 0 W/m 6,3 km/h (2 Bft)
04.11.2014 04:08 9,5 C 8,3 C 96 % 992,8 hPa 0,0 l/m 0 min 0 min 0 W/m 8,4 km/h (2 Bft)
04.11.2014 04:10 9,5 C 8,3 C 96 % 992,8 hPa 0,0 l/m 0 min 0 min 0 W/m 8,4 km/h (2 Bft)
04.11.2014 04:12 9,5 C 8,3 C 96 % 992,7 hPa 0,0 l/m 0 min 0 min 0 W/m 8,4 km/h (2 Bft)
04.11.2014 04:14 9,4 C 8,3 C 96 % 992,7 hPa 0,0 l/m 0 min 0 min 0 W/m 4,2 km/h (1 Bft)
04.11.2014 04:16 9,4 C 8,3 C 96 % 992,8 hPa 0,0 l/m 0 min 0 min 0 W/m 8,4 km/h (2 Bft)
04.11.2014 04:18 9,4 C 8,3 C 96 % 992,7 hPa 0,0 l/m 0 min 0 min 0 W/m 6,3 km/h (2 Bft)
04.11.2014 04:20 9,4 C 8,3 C 96 % 992,7 hPa 0,0 l/m 0 min 0 min 0 W/m 4,2 km/h (1 Bft)
04.11.2014 04:22 9,4 C 8,3 C 96 % 992,7 hPa 0,0 l/m 0 min 0 min 0 W/m 4,2 km/h (1 Bft)
04.11.2014 04:24 9,4 C 8,3 C 96 % 992,7 hPa 0,0 l/m 0 min 0 min 0 W/m 6,3 km/h (2 Bft)
04.11.2014 04:26 9,4 C 8,3 C 96 % 992,7 hPa 0,0 l/m 0 min 0 min 0 W/m 10,5 km/h (2 Bft)
04.11.2014 04:28 9,4 C 8,3 C 96 % 992,7 hPa 0,0 l/m 0 min 0 min 0 W/m 10,5 km/h (2 Bft)
04.11.2014 04:30 9,4 C 8,3 C 96 % 992,7 hPa 0,0 l/m 0 min 0 min 0 W/m 4,2 km/h (1 Bft)
04.11.2014 04:32 9,4 C 8,3 C 96 % 992,7 hPa 0,0 l/m 0 min 0 min 0 W/m 6,3 km/h (2 Bft)
04.11.2014 04:34 9,4 C 8,3 C 96 % 992,7 hPa 0,0 l/m 0 min 0 min 0 W/m 6,3 km/h (2 Bft)
04.11.2014 04:36 9,4 C 8,3 C 96 % 992,7 hPa 0,0 l/m 0 min 0 min 0 W/m 4,2 km/h (1 Bft)
04.11.2014 04:38 9,4 C 8,3 C 96 % 992,7 hPa 0,0 l/m 0 min 0 min 0 W/m 6,3 km/h (2 Bft)
04.11.2014 04:40 9,4 C 8,3 C 96 % 992,7 hPa 0,0 l/m 0 min 0 min 0 W/m 6,3 km/h (2 Bft)
04.11.2014 04:42 9,4 C 8,3 C 96 % 992,7 hPa 0,0 l/m 0 min 0 min 0 W/m 4,2 km/h (1 Bft)
04.11.2014 04:44 9,4 C 8,3 C 97 % 992,6 hPa 0,0 l/m 0 min 0 min 0 W/m 10,5 km/h (2 Bft)
04.11.2014 04:46 9,4 C 8,3 C 97 % 992,7 hPa 0,0 l/m 0 min 2 min 0 W/m 6,3 km/h (2 Bft)
04.11.2014 04:48 9,4 C 8,3 C 97 % 992,7 hPa 0,0 l/m 0 min 0 min 0 W/m 8,4 km/h (2 Bft)
04.11.2014 04:50 9,4 C 8,3 C 97 % 992,8 hPa 0,0 l/m 0 min 0 min 0 W/m 6,3 km/h (2 Bft)
04.11.2014 04:52 9,4 C 8,3 C 97 % 992,7 hPa 0,2 l/m 0 min 0 min 0 W/m 6,3 km/h (2 Bft)
04.11.2014 04:54 9,4 C 8,3 C 97 % 992,8 hPa 0,0 l/m 0 min 0 min 0 W/m 6,3 km/h (2 Bft)
04.11.2014 04:56 9,4 C 8,3 C 97 % 992,8 hPa 0,0 l/m 0 min 2 min 0 W/m 6,3 km/h (2 Bft)
04.11.2014 04:58 9,4 C 8,3 C 97 % 992,8 hPa 0,0 l/m 0 min 0 min 0 W/m 6,3 km/h (2 Bft)
04.11.2014 05:00 9,3 C 8,3 C 97 % 992,8 hPa 0,0 l/m 0 min 0 min 0 W/m 6,3 km/h (2 Bft)
04.11.2014 05:02 9,4 C 8,3 C 97 % 992,8 hPa 0,0 l/m 0 min 0 min 0 W/m 6,3 km/h (2 Bft)
04.11.2014 05:04 9,3 C 8,3 C 97 % 992,8 hPa 0,0 l/m 0 min 0 min 0 W/m 6,3 km/h (2 Bft)
04.11.2014 05:06 9,3 C 8,3 C 97 % 992,8 hPa 0,0 l/m 0 min 2 min 0 W/m 6,3 km/h (2 Bft)
04.11.2014 05:08 9,3 C 8,3 C 97 % 992,8 hPa 0,0 l/m 0 min 2 min 0 W/m 4,2 km/h (1 Bft)
04.11.2014 05:10 9,3 C 8,3 C 97 % 992,8 hPa 0,0 l/m 0 min 2 min 0 W/m 2,1 km/h (1 Bft)
04.11.2014 05:12 9,3 C 8,3 C 97 % 992,9 hPa 0,0 l/m 0 min 2 min 0 W/m 2,1 km/h (1 Bft)
04.11.2014 05:14 9,3 C 8,3 C 97 % 992,8 hPa 0,2 l/m 0 min 2 min 0 W/m 2,1 km/h (1 Bft)
04.11.2014 05:16 9,3 C 8,3 C 97 % 992,8 hPa 0,0 l/m 0 min 2 min 0 W/m 6,3 km/h (2 Bft)
04.11.2014 05:18 9,3 C 8,3 C 97 % 992,8 hPa 0,0 l/m 0 min 2 min 0 W/m 8,4 km/h (2 Bft)
04.11.2014 05:20 9,3 C 8,3 C 97 % 992,8 hPa 0,0 l/m 0 min 2 min 0 W/m 6,3 km/h (2 Bft)
04.11.2014 05:22 9,3 C 8,3 C 97 % 993,0 hPa 0,0 l/m 0 min 2 min 0 W/m 8,4 km/h (2 Bft)
04.11.2014 05:24 9,3 C 8,3 C 97 % 992,9 hPa 0,0 l/m 0 min 2 min 0 W/m 6,3 km/h (2 Bft)
04.11.2014 05:26 9,3 C 8,3 C 97 % 993,0 hPa 0,0 l/m 0 min 2 min 0 W/m 8,4 km/h (2 Bft)
04.11.2014 05:28 9,3 C 8,3 C 97 % 993,0 hPa 0,0 l/m 0 min 2 min 0 W/m 6,3 km/h (2 Bft)
04.11.2014 05:30 9,3 C 8,3 C 97 % 993,0 hPa 0,0 l/m 0 min 2 min 0 W/m 10,5 km/h (2 Bft)
04.11.2014 05:32 9,3 C 8,3 C 97 % 993,0 hPa 0,2 l/m 0 min 2 min 0 W/m 6,3 km/h (2 Bft)
04.11.2014 05:34 9,3 C 8,3 C 97 % 993,0 hPa 0,0 l/m 0 min 2 min 0 W/m 8,4 km/h (2 Bft)
04.11.2014 05:36 9,3 C 8,3 C 97 % 993,0 hPa 0,0 l/m 0 min 2 min 0 W/m 6,3 km/h (2 Bft)
04.11.2014 05:38 9,3 C 8,3 C 97 % 993,0 hPa 0,2 l/m 0 min 2 min 0 W/m 4,2 km/h (1 Bft)
04.11.2014 05:40 9,3 C 8,3 C 97 % 993,0 hPa 0,0 l/m 0 min 2 min 0 W/m 4,2 km/h (1 Bft)
04.11.2014 05:42 9,3 C 8,3 C 97 % 993,0 hPa 0,0 l/m 0 min 2 min 0 W/m 4,2 km/h (1 Bft)
04.11.2014 05:44 9,3 C 8,3 C 97 % 993,0 hPa 0,0 l/m 0 min 2 min 0 W/m 6,3 km/h (2 Bft)
04.11.2014 05:46 9,3 C 8,3 C 97 % 993,0 hPa 0,0 l/m 0 min 2 min 0 W/m 6,3 km/h (2 Bft)
04.11.2014 05:48 9,3 C 8,3 C 97 % 993,0 hPa 0,2 l/m 0 min 2 min 0 W/m 6,3 km/h (2 Bft)
04.11.2014 05:50 9,3 C 8,3 C 97 % 993,0 hPa 0,0 l/m 0 min 2 min 0 W/m 6,3 km/h (2 Bft)
04.11.2014 05:52 9,3 C 8,3 C 97 % 993,0 hPa 0,0 l/m 0 min 2 min 0 W/m 4,2 km/h (1 Bft)
04.11.2014 05:54 9,3 C 8,3 C 97 % 993,0 hPa 0,0 l/m 0 min 2 min 0 W/m 4,2 km/h (1 Bft)
04.11.2014 05:56 9,3 C 8,3 C 97 % 993,1 hPa 0,2 l/m 0 min 2 min 0 W/m 6,3 km/h (2 Bft)
04.11.2014 05:58 9,3 C 8,3 C 97 % 993,1 hPa 0,0 l/m 0 min 2 min 0 W/m 6,3 km/h (2 Bft)
04.11.2014 06:00 9,3 C 8,3 C 97 % 993,0 hPa 0,0 l/m 0 min 2 min 0 W/m 6,3 km/h (2 Bft)
04.11.2014 06:02 9,3 C 8,3 C 97 % 993,0 hPa 0,0 l/m 0 min 2 min 0 W/m 4,2 km/h (1 Bft)
04.11.2014 06:05 9,3 C 8,3 C 97 % 993,1 hPa 0,0 l/m 0 min 2 min 0 W/m 6,3 km/h (2 Bft)
04.11.2014 06:06 9,3 C 8,3 C 97 % 993,1 hPa 0,0 l/m 0 min 1 min 0 W/m 6,3 km/h (2 Bft)
04.11.2014 06:08 9,3 C 8,3 C 97 % 993,2 hPa 0,0 l/m 0 min 2 min 0 W/m 8,4 km/h (2 Bft)
04.11.2014 06:10 9,3 C 8,3 C 97 % 993,3 hPa 0,0 l/m 0 min 2 min 0 W/m 6,3 km/h (2 Bft)
04.11.2014 06:12 9,3 C 8,3 C 97 % 993,4 hPa 0,0 l/m 0 min 2 min 0 W/m 8,4 km/h (2 Bft)
04.11.2014 06:14 9,3 C 8,3 C 97 % 993,3 hPa 0,0 l/m 0 min 2 min 0 W/m 6,3 km/h (2 Bft)
04.11.2014 06:16 9,3 C 8,3 C 97 % 993,4 hPa 0,0 l/m 0 min 2 min 0 W/m 6,3 km/h (2 Bft)
04.11.2014 06:18 9,3 C 8,3 C 97 % 993,5 hPa 0,0 l/m 0 min 2 min 0 W/m 8,4 km/h (2 Bft)
04.11.2014 06:20 9,3 C 8,3 C 97 % 993,4 hPa 0,0 l/m 0 min 2 min 0 W/m 6,3 km/h (2 Bft)
04.11.2014 06:22 9,3 C 8,3 C 97 % 993,5 hPa 0,2 l/m 0 min 2 min 0 W/m 6,3 km/h (2 Bft)
04.11.2014 06:24 9,3 C 8,3 C 97 % 993,5 hPa 0,0 l/m 0 min 2 min 0 W/m 8,4 km/h (2 Bft)
04.11.2014 06:26 9,3 C 8,3 C 97 % 993,5 hPa 0,0 l/m 0 min 2 min 0 W/m 6,3 km/h (2 Bft)
04.11.2014 06:28 9,3 C 8,3 C 97 % 993,5 hPa 0,0 l/m 0 min 2 min 0 W/m 6,3 km/h (2 Bft)
04.11.2014 06:30 9,3 C 8,3 C 97 % 993,5 hPa 0,0 l/m 0 min 2 min 0 W/m 6,3 km/h (2 Bft)
04.11.2014 06:32 9,2 C 8,3 C 97 % 993,6 hPa 0,2 l/m 0 min 2 min 0 W/m 4,2 km/h (1 Bft)
04.11.2014 06:34 9,2 C 8,3 C 97 % 993,5 hPa 0,0 l/m 0 min 2 min 0 W/m 6,3 km/h (2 Bft)
04.11.2014 06:36 9,2 C 8,3 C 97 % 993,5 hPa 0,0 l/m 0 min 2 min 0 W/m 6,3 km/h (2 Bft)
04.11.2014 06:38 9,2 C 8,3 C 97 % 993,5 hPa 0,0 l/m 0 min 2 min 0 W/m 8,4 km/h (2 Bft)
04.11.2014 06:40 9,2 C 8,3 C 97 % 993,5 hPa 0,0 l/m 0 min 2 min 0 W/m 6,3 km/h (2 Bft)
04.11.2014 06:42 9,2 C 8,3 C 97 % 993,5 hPa 0,0 l/m 0 min 2 min 0 W/m 4,2 km/h (1 Bft)
04.11.2014 06:44 9,2 C 8,3 C 97 % 993,5 hPa 0,2 l/m 0 min 2 min 0 W/m 6,3 km/h (2 Bft)
04.11.2014 06:46 9,2 C 8,3 C 97 % 993,5 hPa 0,0 l/m 0 min 2 min 0 W/m 6,3 km/h (2 Bft)
04.11.2014 06:48 9,2 C 8,3 C 97 % 993,5 hPa 0,0 l/m 0 min 2 min 0 W/m 6,3 km/h (2 Bft)
04.11.2014 06:50 9,2 C 8,3 C 97 % 993,5 hPa 0,0 l/m 0 min 2 min 0 W/m 6,3 km/h (2 Bft)
04.11.2014 06:52 9,2 C 8,3 C 97 % 993,6 hPa 0,0 l/m 0 min 2 min 0 W/m 4,2 km/h (1 Bft)
04.11.2014 06:54 9,2 C 8,3 C 97 % 993,5 hPa 0,2 l/m 0 min 2 min 0 W/m 4,2 km/h (1 Bft)
04.11.2014 06:56 9,2 C 8,3 C 97 % 993,5 hPa 0,0 l/m 0 min 2 min 0 W/m 4,2 km/h (1 Bft)
04.11.2014 06:58 9,2 C 8,3 C 97 % 993,5 hPa 0,0 l/m 0 min 0 min 0 W/m 4,2 km/h (1 Bft)
04.11.2014 07:00 9,2 C 8,3 C 97 % 993,5 hPa 0,0 l/m 0 min 2 min 0 W/m 4,2 km/h (1 Bft)
04.11.2014 07:02 9,2 C 8,3 C 97 % 993,5 hPa 0,0 l/m 0 min 2 min 0 W/m 0,0 km/h (0 Bft)
04.11.2014 07:04 9,2 C 8,3 C 97 % 993,5 hPa 0,0 l/m 0 min 2 min 0 W/m 2,1 km/h (1 Bft)
04.11.2014 07:06 9,2 C 8,3 C 97 % 993,6 hPa 0,0 l/m 0 min 0 min 0 W/m 4,2 km/h (1 Bft)
04.11.2014 07:08 9,2 C 8,3 C 97 % 993,6 hPa 0,0 l/m 0 min 0 min 0 W/m 4,2 km/h (1 Bft)
04.11.2014 07:10 9,2 C 8,3 C 97 % 993,6 hPa 0,0 l/m 0 min 0 min 0 W/m 2,1 km/h (1 Bft)
04.11.2014 07:12 9,2 C 8,3 C 97 % 993,6 hPa 0,0 l/m 0 min 0 min 0 W/m 6,3 km/h (2 Bft)
04.11.2014 07:14 9,2 C 8,3 C 97 % 993,8 hPa 0,0 l/m 0 min 0 min 0 W/m 6,3 km/h (2 Bft)
04.11.2014 07:16 9,2 C 8,3 C 97 % 993,9 hPa 0,0 l/m 0 min 0 min 0 W/m 4,2 km/h (1 Bft)
04.11.2014 07:18 9,2 C 8,3 C 97 % 993,7 hPa 0,0 l/m 0 min 0 min 0 W/m 4,2 km/h (1 Bft)
04.11.2014 07:20 9,2 C 8,3 C 97 % 993,9 hPa 0,0 l/m 0 min 0 min 0 W/m 4,2 km/h (1 Bft)
04.11.2014 07:22 9,2 C 8,3 C 97 % 993,8 hPa 0,0 l/m 0 min 0 min 0 W/m 2,1 km/h (1 Bft)
04.11.2014 07:24 9,2 C 8,3 C 97 % 993,9 hPa 0,0 l/m 0 min 0 min 0 W/m 2,1 km/h (1 Bft)
04.11.2014 07:26 9,2 C 8,3 C 97 % 993,8 hPa 0,0 l/m 0 min 0 min 0 W/m 2,1 km/h (1 Bft)
04.11.2014 07:28 9,2 C 8,3 C 97 % 993,9 hPa 0,0 l/m 0 min 0 min 0 W/m 2,1 km/h (1 Bft)
04.11.2014 07:30 9,2 C 8,3 C 97 % 993,9 hPa 0,0 l/m 0 min 0 min 0 W/m 2,1 km/h (1 Bft)
04.11.2014 07:32 9,2 C 8,3 C 97 % 994,0 hPa 0,0 l/m 0 min 0 min 0 W/m 2,1 km/h (1 Bft)
04.11.2014 07:34 9,2 C 8,3 C 97 % 994,0 hPa 0,0 l/m 0 min 0 min 0 W/m 4,2 km/h (1 Bft)
04.11.2014 07:36 9,2 C 8,3 C 97 % 994,0 hPa 0,0 l/m 0 min 0 min 0 W/m 4,2 km/h (1 Bft)
04.11.2014 07:38 9,2 C 8,3 C 97 % 994,0 hPa 0,0 l/m 0 min 0 min 0 W/m 4,2 km/h (1 Bft)
04.11.2014 07:40 9,2 C 8,3 C 97 % 994,0 hPa 0,0 l/m 0 min 0 min 2 W/m 4,2 km/h (1 Bft)
04.11.2014 07:42 9,2 C 8,3 C 97 % 994,0 hPa 0,0 l/m 0 min 0 min 5 W/m 4,2 km/h (1 Bft)
04.11.2014 07:44 9,2 C 8,3 C 97 % 994,0 hPa 0,0 l/m 0 min 0 min 6 W/m 2,1 km/h (1 Bft)
04.11.2014 07:46 9,2 C 8,3 C 97 % 994,1 hPa 0,0 l/m 0 min 0 min 7 W/m 4,2 km/h (1 Bft)
04.11.2014 07:48 9,2 C 8,3 C 97 % 994,2 hPa 0,0 l/m 0 min 0 min 9 W/m 4,2 km/h (1 Bft)
04.11.2014 07:50 9,2 C 8,3 C 97 % 994,2 hPa 0,0 l/m 0 min 0 min 10 W/m 6,3 km/h (2 Bft)
04.11.2014 07:52 9,2 C 8,3 C 97 % 994,2 hPa 0,0 l/m 0 min 0 min 12 W/m 6,3 km/h (2 Bft)
04.11.2014 07:54 9,2 C 8,3 C 97 % 994,2 hPa 0,0 l/m 0 min 0 min 13 W/m 6,3 km/h (2 Bft)
04.11.2014 07:56 9,2 C 7,8 C 97 % 994,3 hPa 0,0 l/m 0 min 0 min 16 W/m 6,3 km/h (2 Bft)
04.11.2014 07:58 9,2 C 8,3 C 97 % 994,3 hPa 0,0 l/m 0 min 0 min 16 W/m 6,3 km/h (2 Bft)
04.11.2014 08:00 9,2 C 8,3 C 97 % 994,3 hPa 0,0 l/m 0 min 0 min 17 W/m 4,2 km/h (1 Bft)
04.11.2014 08:02 9,2 C 8,3 C 97 % 994,4 hPa 0,0 l/m 0 min 0 min 18 W/m 4,2 km/h (1 Bft)
04.11.2014 08:04 9,2 C 8,3 C 97 % 994,4 hPa 0,0 l/m 0 min 0 min 20 W/m 6,3 km/h (2 Bft)
04.11.2014 08:06 9,2 C 8,3 C 97 % 994,5 hPa 0,0 l/m 0 min 0 min 23 W/m 6,3 km/h (2 Bft)
04.11.2014 08:08 9,2 C 8,3 C 97 % 994,6 hPa 0,0 l/m 0 min 0 min 25 W/m 6,3 km/h (2 Bft)
04.11.2014 08:10 9,2 C 8,3 C 97 % 994,7 hPa 0,0 l/m 0 min 0 min 26 W/m 8,4 km/h (2 Bft)
04.11.2014 08:12 9,2 C 8,3 C 97 % 994,7 hPa 0,0 l/m 0 min 0 min 26 W/m 6,3 km/h (2 Bft)
04.11.2014 08:14 9,2 C 8,3 C 97 % 994,8 hPa 0,0 l/m 0 min 0 min 27 W/m 8,4 km/h (2 Bft)
04.11.2014 08:16 9,2 C 8,3 C 97 % 994,9 hPa 0,0 l/m 0 min 0 min 28 W/m 10,5 km/h (2 Bft)
04.11.2014 08:18 9,2 C 8,3 C 97 % 994,9 hPa 0,0 l/m 0 min 0 min 27 W/m 8,4 km/h (2 Bft)
04.11.2014 08:20 9,2 C 8,3 C 97 % 994,9 hPa 0,0 l/m 0 min 0 min 23 W/m 8,4 km/h (2 Bft)
04.11.2014 08:22 9,2 C 8,3 C 97 % 994,9 hPa 0,0 l/m 0 min 0 min 19 W/m 10,5 km/h (2 Bft)
04.11.2014 08:24 9,2 C 8,3 C 97 % 994,9 hPa 0,0 l/m 0 min 0 min 18 W/m 12,6 km/h (3 Bft)
04.11.2014 08:26 9,2 C 8,3 C 97 % 995,0 hPa 0,0 l/m 0 min 0 min 18 W/m 12,6 km/h (3 Bft)
04.11.2014 08:28 9,2 C 8,3 C 97 % 995,1 hPa 0,0 l/m 0 min 0 min 18 W/m 8,4 km/h (2 Bft)
04.11.2014 08:30 9,2 C 8,3 C 97 % 995,1 hPa 0,0 l/m 0 min 0 min 19 W/m 6,3 km/h (2 Bft)
04.11.2014 08:32 9,2 C 8,3 C 97 % 995,1 hPa 0,0 l/m 0 min 0 min 21 W/m 8,4 km/h (2 Bft)
04.11.2014 08:34 9,2 C 8,3 C 97 % 995,2 hPa 0,0 l/m 0 min 0 min 20 W/m 8,4 km/h (2 Bft)
04.11.2014 08:36 9,2 C 8,3 C 97 % 995,3 hPa 0,0 l/m 0 min 0 min 18 W/m 8,4 km/h (2 Bft)
04.11.2014 08:38 9,2 C 8,3 C 97 % 995,4 hPa 0,0 l/m 0 min 0 min 14 W/m 8,4 km/h (2 Bft)
04.11.2014 08:40 9,2 C 8,3 C 97 % 995,4 hPa 0,0 l/m 0 min 0 min 14 W/m 12,6 km/h (3 Bft)
04.11.2014 08:42 9,2 C 8,3 C 97 % 995,3 hPa 0,0 l/m 0 min 0 min 19 W/m 10,5 km/h (2 Bft)
04.11.2014 08:44 9,2 C 8,3 C 97 % 995,3 hPa 0,0 l/m 0 min 0 min 23 W/m 6,3 km/h (2 Bft)
04.11.2014 08:46 9,2 C 8,3 C 97 % 995,3 hPa 0,0 l/m 0 min 0 min 34 W/m 10,5 km/h (2 Bft)
04.11.2014 08:48 9,2 C 8,3 C 97 % 995,2 hPa 0,0 l/m 0 min 0 min 40 W/m 12,6 km/h (3 Bft)
04.11.2014 08:50 9,3 C 8,3 C 97 % 995,2 hPa 0,0 l/m 0 min 0 min 43 W/m 10,5 km/h (2 Bft)
04.11.2014 08:52 9,3 C 8,3 C 97 % 995,2 hPa 0,0 l/m 0 min 0 min 48 W/m 10,5 km/h (2 Bft)
04.11.2014 08:54 9,3 C 8,9 C 97 % 995,2 hPa 0,0 l/m 0 min 0 min 47 W/m 6,3 km/h (2 Bft)
04.11.2014 08:56 9,3 C 8,9 C 97 % 995,4 hPa 0,0 l/m 0 min 0 min 39 W/m 6,3 km/h (2 Bft)
04.11.2014 08:58 9,3 C 8,3 C 97 % 995,5 hPa 0,0 l/m 0 min 0 min 31 W/m 6,3 km/h (2 Bft)
04.11.2014 09:00 9,3 C 8,3 C 97 % 995,5 hPa 0,0 l/m 0 min 0 min 27 W/m 10,5 km/h (2 Bft)
04.11.2014 09:02 9,3 C 8,3 C 97 % 995,5 hPa 0,0 l/m 0 min 0 min 28 W/m 8,4 km/h (2 Bft)
04.11.2014 09:04 9,3 C 8,3 C 97 % 995,4 hPa 0,0 l/m 0 min 0 min 32 W/m 8,4 km/h (2 Bft)
04.11.2014 09:06 9,4 C 8,3 C 97 % 995,3 hPa 0,0 l/m 0 min 0 min 38 W/m 6,3 km/h (2 Bft)
04.11.2014 09:08 9,4 C 8,3 C 97 % 995,4 hPa 0,0 l/m 0 min 0 min 40 W/m 6,3 km/h (2 Bft)
04.11.2014 09:10 9,4 C 8,3 C 97 % 995,2 hPa 0,0 l/m 0 min 2 min 44 W/m 8,4 km/h (2 Bft)
04.11.2014 09:12 9,4 C 8,9 C 97 % 995,2 hPa 0,0 l/m 0 min 2 min 48 W/m 6,3 km/h (2 Bft)
04.11.2014 09:14 9,4 C 8,9 C 97 % 995,1 hPa 0,0 l/m 0 min 2 min 55 W/m 6,3 km/h (2 Bft)
04.11.2014 09:16 9,4 C 8,9 C 97 % 995,2 hPa 0,0 l/m 0 min 2 min 60 W/m 8,4 km/h (2 Bft)
04.11.2014 09:18 9,4 C 8,9 C 98 % 995,2 hPa 0,0 l/m 0 min 2 min 59 W/m 8,4 km/h (2 Bft)
04.11.2014 09:20 9,4 C 8,9 C 98 % 995,2 hPa 0,0 l/m 0 min 2 min 58 W/m 8,4 km/h (2 Bft)
04.11.2014 09:22 9,4 C 8,9 C 98 % 995,1 hPa 0,0 l/m 0 min 2 min 53 W/m 8,4 km/h (2 Bft)
04.11.2014 09:24 9,5 C 8,9 C 98 % 995,2 hPa 0,0 l/m 0 min 2 min 43 W/m 10,5 km/h (2 Bft)
04.11.2014 09:26 9,5 C 8,9 C 98 % 995,4 hPa 0,0 l/m 0 min 2 min 34 W/m 10,5 km/h (2 Bft)
04.11.2014 09:28 9,5 C 8,9 C 98 % 995,4 hPa 0,0 l/m 0 min 2 min 29 W/m 12,6 km/h (3 Bft)
04.11.2014 09:30 9,5 C 8,9 C 98 % 995,4 hPa 0,0 l/m 0 min 2 min 30 W/m 12,6 km/h (3 Bft)
04.11.2014 09:32 9,5 C 8,9 C 98 % 995,4 hPa 0,0 l/m 0 min 2 min 29 W/m 6,3 km/h (2 Bft)
04.11.2014 09:34 9,5 C 8,9 C 98 % 995,4 hPa 0,0 l/m 0 min 2 min 33 W/m 8,4 km/h (2 Bft)
04.11.2014 09:36 9,5 C 8,9 C 98 % 995,4 hPa 0,0 l/m 0 min 2 min 36 W/m 6,3 km/h (2 Bft)
04.11.2014 09:38 9,6 C 8,9 C 98 % 995,4 hPa 0,0 l/m 0 min 2 min 41 W/m 12,6 km/h (3 Bft)
04.11.2014 09:40 9,6 C 8,9 C 98 % 995,4 hPa 0,0 l/m 0 min 2 min 45 W/m 10,5 km/h (2 Bft)
04.11.2014 09:42 9,6 C 8,9 C 98 % 995,5 hPa 0,0 l/m 0 min 2 min 47 W/m 6,3 km/h (2 Bft)
04.11.2014 09:44 9,6 C 8,9 C 98 % 995,5 hPa 0,0 l/m 0 min 2 min 50 W/m 10,5 km/h (2 Bft)
04.11.2014 09:46 9,6 C 8,9 C 98 % 995,5 hPa 0,0 l/m 0 min 2 min 54 W/m 4,2 km/h (1 Bft)
04.11.2014 09:48 9,6 C 8,9 C 98 % 995,5 hPa 0,0 l/m 0 min 2 min 57 W/m 10,5 km/h (2 Bft)
04.11.2014 09:50 9,6 C 8,9 C 98 % 995,6 hPa 0,0 l/m 0 min 2 min 54 W/m 12,6 km/h (3 Bft)
04.11.2014 09:52 9,6 C 8,9 C 98 % 995,7 hPa 0,0 l/m 0 min 2 min 53 W/m 10,5 km/h (2 Bft)
04.11.2014 09:54 9,6 C 8,9 C 98 % 995,7 hPa 0,0 l/m 0 min 2 min 49 W/m 12,6 km/h (3 Bft)
04.11.2014 09:56 9,6 C 8,9 C 98 % 995,7 hPa 0,0 l/m 0 min 2 min 44 W/m 8,4 km/h (2 Bft)
04.11.2014 09:58 9,6 C 8,9 C 98 % 995,8 hPa 0,0 l/m 0 min 2 min 39 W/m 14,6 km/h (3 Bft)
04.11.2014 10:00 9,6 C 8,9 C 98 % 995,9 hPa 0,0 l/m 0 min 2 min 40 W/m 10,5 km/h (2 Bft)
04.11.2014 10:02 9,6 C 8,9 C 98 % 995,8 hPa 0,0 l/m 0 min 2 min 43 W/m 8,4 km/h (2 Bft)
04.11.2014 10:04 9,6 C 8,9 C 98 % 995,9 hPa 0,0 l/m 0 min 2 min 46 W/m 10,5 km/h (2 Bft)
04.11.2014 10:06 9,6 C 8,9 C 98 % 995,9 hPa 0,0 l/m 0 min 2 min 48 W/m 10,5 km/h (2 Bft)
04.11.2014 10:08 9,6 C 8,9 C 98 % 995,9 hPa 0,0 l/m 0 min 2 min 57 W/m 6,3 km/h (2 Bft)
04.11.2014 10:10 9,7 C 8,9 C 98 % 995,9 hPa 0,0 l/m 0 min 2 min 68 W/m 8,4 km/h (2 Bft)
04.11.2014 10:12 9,7 C 9,4 C 98 % 995,9 hPa 0,0 l/m 0 min 2 min 74 W/m 10,5 km/h (2 Bft)
04.11.2014 10:14 9,7 C 9,4 C 98 % 996,0 hPa 0,0 l/m 0 min 2 min 75 W/m 6,3 km/h (2 Bft)
04.11.2014 10:16 9,7 C 9,4 C 98 % 996,0 hPa 0,0 l/m 0 min 2 min 72 W/m 6,3 km/h (2 Bft)
04.11.2014 10:18 9,7 C 9,4 C 98 % 996,0 hPa 0,0 l/m 0 min 2 min 67 W/m 8,4 km/h (2 Bft)
04.11.2014 10:20 9,8 C 9,4 C 98 % 996,0 hPa 0,0 l/m 0 min 0 min 63 W/m 8,4 km/h (2 Bft)
04.11.2014 10:22 9,8 C 9,4 C 98 % 996,0 hPa 0,0 l/m 0 min 0 min 67 W/m 8,4 km/h (2 Bft)
04.11.2014 10:24 9,8 C 9,4 C 98 % 996,0 hPa 0,0 l/m 0 min 0 min 69 W/m 18,8 km/h (3 Bft)
04.11.2014 10:26 9,8 C 9,4 C 98 % 996,0 hPa 0,0 l/m 0 min 0 min 78 W/m 14,6 km/h (3 Bft)
04.11.2014 10:28 9,9 C 9,4 C 98 % 996,0 hPa 0,0 l/m 0 min 0 min 91 W/m 10,5 km/h (2 Bft)
04.11.2014 10:30 9,9 C 9,4 C 98 % 995,9 hPa 0,0 l/m 0 min 0 min 95 W/m 10,5 km/h (2 Bft)
04.11.2014 10:32 9,9 C 9,4 C 98 % 995,9 hPa 0,0 l/m 0 min 0 min 92 W/m 8,4 km/h (2 Bft)
04.11.2014 10:34 9,9 C 9,4 C 98 % 995,8 hPa 0,0 l/m 0 min 0 min 92 W/m 8,4 km/h (2 Bft)
04.11.2014 10:36 9,9 C 9,4 C 98 % 995,9 hPa 0,0 l/m 0 min 0 min 92 W/m 8,4 km/h (2 Bft)
04.11.2014 10:38 9,9 C 9,4 C 98 % 995,8 hPa 0,0 l/m 0 min 0 min 92 W/m 10,5 km/h (2 Bft)
04.11.2014 10:40 9,9 C 9,4 C 98 % 995,8 hPa 0,0 l/m 0 min 0 min 100 W/m 4,2 km/h (1 Bft)
04.11.2014 10:42 9,9 C 9,4 C 98 % 995,8 hPa 0,0 l/m 0 min 0 min 103 W/m 8,4 km/h (2 Bft)
04.11.2014 10:44 10,0 C 10,0 C 98 % 995,9 hPa 0,0 l/m 0 min 0 min 99 W/m 14,6 km/h (3 Bft)
04.11.2014 10:46 10,0 C 10,0 C 98 % 996,0 hPa 0,0 l/m 0 min 0 min 106 W/m 10,5 km/h (2 Bft)
04.11.2014 10:48 10,0 C 10,0 C 98 % 996,0 hPa 0,0 l/m 0 min 0 min 112 W/m 8,4 km/h (2 Bft)
04.11.2014 10:50 10,1 C 10,0 C 98 % 996,0 hPa 0,0 l/m 0 min 0 min 109 W/m 8,4 km/h (2 Bft)
04.11.2014 10:52 10,1 C 10,0 C 98 % 996,0 hPa 0,0 l/m 0 min 0 min 105 W/m 6,3 km/h (2 Bft)
04.11.2014 10:54 10,1 C 10,0 C 98 % 996,0 hPa 0,0 l/m 0 min 0 min 105 W/m 8,4 km/h (2 Bft)
04.11.2014 10:56 10,1 C 10,0 C 98 % 996,0 hPa 0,0 l/m 0 min 0 min 104 W/m 10,5 km/h (2 Bft)
04.11.2014 10:58 10,2 C 10,0 C 98 % 996,0 hPa 0,0 l/m 0 min 0 min 108 W/m 10,5 km/h (2 Bft)
04.11.2014 11:00 10,2 C 10,0 C 98 % 995,9 hPa 0,0 l/m 0 min 0 min 123 W/m 14,6 km/h (3 Bft)
04.11.2014 11:02 10,2 C 10,0 C 98 % 995,9 hPa 0,0 l/m 0 min 0 min 138 W/m 10,5 km/h (2 Bft)
04.11.2014 11:04 10,2 C 10,0 C 98 % 995,9 hPa 0,0 l/m 0 min 0 min 144 W/m 8,4 km/h (2 Bft)
04.11.2014 11:06 10,2 C 10,0 C 98 % 995,8 hPa 0,0 l/m 0 min 0 min 147 W/m 8,4 km/h (2 Bft)
04.11.2014 11:08 10,2 C 10,6 C 98 % 995,8 hPa 0,0 l/m 0 min 0 min 142 W/m 10,5 km/h (2 Bft)
04.11.2014 11:10 10,2 C 10,6 C 98 % 995,8 hPa 0,0 l/m 0 min 0 min 135 W/m 14,6 km/h (3 Bft)
04.11.2014 11:12 10,3 C 10,6 C 98 % 995,8 hPa 0,0 l/m 0 min 0 min 136 W/m 8,4 km/h (2 Bft)
04.11.2014 11:14 10,3 C 10,6 C 98 % 995,9 hPa 0,0 l/m 0 min 0 min 146 W/m 10,5 km/h (2 Bft)
04.11.2014 11:16 10,3 C 10,0 C 98 % 995,9 hPa 0,0 l/m 0 min 0 min 151 W/m 14,6 km/h (3 Bft)
04.11.2014 11:18 10,3 C 10,0 C 98 % 995,8 hPa 0,0 l/m 0 min 0 min 155 W/m 12,6 km/h (3 Bft)
04.11.2014 11:20 10,3 C 10,0 C 98 % 995,9 hPa 0,0 l/m 0 min 0 min 146 W/m 12,6 km/h (3 Bft)
04.11.2014 11:22 10,3 C 10,0 C 98 % 996,0 hPa 0,0 l/m 0 min 0 min 124 W/m 8,4 km/h (2 Bft)
04.11.2014 11:24 10,3 C 10,0 C 98 % 996,0 hPa 0,0 l/m 0 min 0 min 111 W/m 8,4 km/h (2 Bft)
04.11.2014 11:26 10,3 C 10,0 C 98 % 996,0 hPa 0,0 l/m 0 min 0 min 104 W/m 6,3 km/h (2 Bft)
04.11.2014 11:28 10,3 C 10,0 C 98 % 996,0 hPa 0,0 l/m 0 min 0 min 102 W/m 10,5 km/h (2 Bft)
04.11.2014 11:30 10,3 C 10,0 C 98 % 996,0 hPa 0,0 l/m 0 min 0 min 100 W/m 8,4 km/h (2 Bft)
04.11.2014 11:32 10,4 C 10,0 C 98 % 995,9 hPa 0,0 l/m 0 min 0 min 96 W/m 10,5 km/h (2 Bft)
04.11.2014 11:34 10,4 C 10,0 C 98 % 995,9 hPa 0,0 l/m 0 min 0 min 100 W/m 10,5 km/h (2 Bft)
04.11.2014 11:36 10,4 C 10,0 C 98 % 995,8 hPa 0,0 l/m 0 min 0 min 115 W/m 6,3 km/h (2 Bft)
04.11.2014 11:38 10,4 C 10,0 C 98 % 995,8 hPa 0,0 l/m 0 min 0 min 122 W/m 10,5 km/h (2 Bft)
04.11.2014 11:40 10,4 C 10,0 C 98 % 995,8 hPa 0,0 l/m 0 min 0 min 120 W/m 10,5 km/h (2 Bft)
04.11.2014 11:42 10,4 C 10,0 C 98 % 995,7 hPa 0,0 l/m 0 min 0 min 112 W/m 10,5 km/h (2 Bft)
04.11.2014 11:44 10,4 C 10,0 C 98 % 995,6 hPa 0,0 l/m 0 min 0 min 106 W/m 12,6 km/h (3 Bft)
04.11.2014 11:46 10,4 C 10,0 C 98 % 995,7 hPa 0,0 l/m 0 min 0 min 104 W/m 6,3 km/h (2 Bft)
04.11.2014 11:48 10,4 C 10,0 C 98 % 995,6 hPa 0,0 l/m 0 min 0 min 111 W/m 12,6 km/h (3 Bft)
04.11.2014 11:50 10,4 C 10,0 C 98 % 995,6 hPa 0,0 l/m 0 min 0 min 115 W/m 10,5 km/h (2 Bft)
04.11.2014 11:52 10,5 C 10,0 C 98 % 995,5 hPa 0,0 l/m 0 min 0 min 112 W/m 6,3 km/h (2 Bft)
04.11.2014 11:54 10,5 C 10,0 C 98 % 995,5 hPa 0,0 l/m 0 min 0 min 112 W/m 6,3 km/h (2 Bft)
04.11.2014 11:56 10,5 C 10,0 C 98 % 995,4 hPa 0,0 l/m 0 min 0 min 113 W/m 10,5 km/h (2 Bft)
04.11.2014 11:58 10,6 C 10,0 C 98 % 995,4 hPa 0,0 l/m 0 min 0 min 114 W/m 10,5 km/h (2 Bft)
04.11.2014 12:00 10,5 C 10,0 C 98 % 995,4 hPa 0,0 l/m 0 min 2 min 116 W/m 14,6 km/h (3 Bft)
04.11.2014 12:02 10,5 C 10,0 C 98 % 995,4 hPa 0,0 l/m 0 min 2 min 118 W/m 8,4 km/h (2 Bft)
04.11.2014 12:05 10,5 C 10,0 C 98 % 995,4 hPa 0,0 l/m 0 min 2 min 127 W/m 14,6 km/h (3 Bft)
04.11.2014 12:08 10,5 C 10,0 C 98 % 995,4 hPa 0,0 l/m 0 min 2 min 126 W/m 14,6 km/h (3 Bft)
04.11.2014 12:10 10,5 C 10,0 C 98 % 995,4 hPa 0,0 l/m 0 min 0 min 133 W/m 8,4 km/h (2 Bft)
04.11.2014 12:12 10,5 C 10,0 C 98 % 995,4 hPa 0,0 l/m 0 min 0 min 142 W/m 8,4 km/h (2 Bft)
04.11.2014 12:14 10,6 C 10,0 C 98 % 995,3 hPa 0,0 l/m 0 min 0 min 149 W/m 6,3 km/h (2 Bft)
04.11.2014 12:16 10,6 C 10,0 C 98 % 995,4 hPa 0,0 l/m 0 min 0 min 148 W/m 10,5 km/h (2 Bft)
04.11.2014 12:18 10,6 C 10,6 C 98 % 995,4 hPa 0,0 l/m 0 min 0 min 139 W/m 10,5 km/h (2 Bft)
04.11.2014 12:20 10,6 C 10,6 C 98 % 995,3 hPa 0,0 l/m 0 min 0 min 122 W/m 8,4 km/h (2 Bft)
04.11.2014 12:22 10,6 C 10,0 C 98 % 995,3 hPa 0,0 l/m 0 min 0 min 118 W/m 8,4 km/h (2 Bft)
04.11.2014 12:24 10,6 C 10,0 C 97 % 995,4 hPa 0,0 l/m 0 min 0 min 120 W/m 6,3 km/h (2 Bft)
04.11.2014 12:26 10,6 C 10,6 C 97 % 995,4 hPa 0,0 l/m 0 min 0 min 115 W/m 8,4 km/h (2 Bft)
04.11.2014 12:28 10,7 C 10,0 C 97 % 995,3 hPa 0,0 l/m 0 min 0 min 117 W/m 8,4 km/h (2 Bft)
04.11.2014 12:30 10,7 C 10,0 C 97 % 995,3 hPa 0,0 l/m 0 min 0 min 118 W/m 8,4 km/h (2 Bft)
04.11.2014 12:32 10,7 C 10,6 C 97 % 995,3 hPa 0,0 l/m 0 min 0 min 121 W/m 8,4 km/h (2 Bft)
04.11.2014 12:34 10,7 C 10,6 C 97 % 995,4 hPa 0,0 l/m 0 min 2 min 129 W/m 12,6 km/h (3 Bft)
04.11.2014 12:36 10,7 C 10,6 C 97 % 995,3 hPa 0,0 l/m 0 min 2 min 137 W/m 8,4 km/h (2 Bft)
04.11.2014 12:38 10,7 C 10,6 C 97 % 995,3 hPa 0,0 l/m 0 min 2 min 145 W/m 6,3 km/h (2 Bft)
04.11.2014 12:40 10,8 C 10,6 C 97 % 995,4 hPa 0,0 l/m 0 min 2 min 141 W/m 8,4 km/h (2 Bft)
04.11.2014 12:42 10,8 C 10,6 C 97 % 995,4 hPa 0,0 l/m 0 min 2 min 128 W/m 8,4 km/h (2 Bft)
04.11.2014 12:44 10,8 C 10,6 C 97 % 995,4 hPa 0,0 l/m 0 min 2 min 124 W/m 4,2 km/h (1 Bft)
04.11.2014 12:46 10,8 C 10,6 C 97 % 995,4 hPa 0,0 l/m 0 min 2 min 129 W/m 8,4 km/h (2 Bft)
04.11.2014 12:48 10,9 C 10,6 C 97 % 995,4 hPa 0,0 l/m 0 min 2 min 127 W/m 8,4 km/h (2 Bft)
04.11.2014 12:50 10,9 C 10,6 C 97 % 995,3 hPa 0,0 l/m 0 min 0 min 125 W/m 12,6 km/h (3 Bft)
04.11.2014 12:52 10,9 C 10,6 C 97 % 995,3 hPa 0,0 l/m 0 min 0 min 139 W/m 12,6 km/h (3 Bft)
04.11.2014 12:54 10,9 C 10,6 C 97 % 995,3 hPa 0,0 l/m 0 min 0 min 150 W/m 12,6 km/h (3 Bft)
04.11.2014 12:56 10,9 C 10,6 C 97 % 995,3 hPa 0,0 l/m 0 min 0 min 147 W/m 6,3 km/h (2 Bft)
04.11.2014 12:58 10,9 C 10,6 C 97 % 995,4 hPa 0,0 l/m 0 min 0 min 133 W/m 8,4 km/h (2 Bft)
04.11.2014 13:00 10,9 C 10,6 C 97 % 995,4 hPa 0,0 l/m 0 min 0 min 125 W/m 8,4 km/h (2 Bft)
04.11.2014 13:02 11,0 C 10,6 C 96 % 995,4 hPa 0,0 l/m 0 min 0 min 135 W/m 4,2 km/h (1 Bft)
04.11.2014 13:04 11,0 C 10,6 C 96 % 995,4 hPa 0,0 l/m 0 min 0 min 133 W/m 6,3 km/h (2 Bft)
04.11.2014 13:06 11,0 C 10,6 C 96 % 995,4 hPa 0,0 l/m 0 min 0 min 111 W/m 10,5 km/h (2 Bft)
04.11.2014 13:08 11,0 C 10,6 C 96 % 995,4 hPa 0,0 l/m 0 min 0 min 104 W/m 8,4 km/h (2 Bft)
04.11.2014 13:10 11,1 C 10,6 C 96 % 995,4 hPa 0,0 l/m 0 min 0 min 121 W/m 8,4 km/h (2 Bft)
04.11.2014 13:12 11,1 C 10,6 C 96 % 995,4 hPa 0,0 l/m 0 min 0 min 136 W/m 6,3 km/h (2 Bft)
04.11.2014 13:14 11,1 C 10,6 C 96 % 995,4 hPa 0,0 l/m 0 min 0 min 131 W/m 4,2 km/h (1 Bft)
04.11.2014 13:16 11,1 C 10,6 C 96 % 995,4 hPa 0,0 l/m 0 min 0 min 115 W/m 8,4 km/h (2 Bft)
04.11.2014 13:18 11,1 C 10,6 C 96 % 995,4 hPa 0,0 l/m 0 min 0 min 113 W/m 8,4 km/h (2 Bft)
04.11.2014 13:20 11,1 C 10,6 C 96 % 995,4 hPa 0,0 l/m 0 min 0 min 118 W/m 10,5 km/h (2 Bft)
04.11.2014 13:22 11,1 C 10,6 C 96 % 995,3 hPa 0,0 l/m 0 min 0 min 121 W/m 8,4 km/h (2 Bft)
04.11.2014 13:24 11,1 C 10,6 C 95 % 995,3 hPa 0,0 l/m 0 min 0 min 121 W/m 10,5 km/h (2 Bft)
04.11.2014 13:26 11,1 C 10,6 C 95 % 995,3 hPa 0,0 l/m 0 min 0 min 123 W/m 8,4 km/h (2 Bft)
04.11.2014 13:28 11,1 C 10,6 C 95 % 995,3 hPa 0,0 l/m 0 min 0 min 122 W/m 12,6 km/h (3 Bft)
04.11.2014 13:30 11,1 C 10,6 C 95 % 995,3 hPa 0,0 l/m 0 min 0 min 116 W/m 10,5 km/h (2 Bft)
04.11.2014 13:32 11,1 C 10,6 C 95 % 995,3 hPa 0,0 l/m 0 min 0 min 107 W/m 8,4 km/h (2 Bft)
04.11.2014 13:34 11,1 C 10,6 C 95 % 995,4 hPa 0,0 l/m 0 min 0 min 100 W/m 8,4 km/h (2 Bft)
04.11.2014 13:36 11,1 C 10,6 C 94 % 995,5 hPa 0,0 l/m 0 min 0 min 95 W/m 12,6 km/h (3 Bft)
04.11.2014 13:38 11,1 C 10,6 C 94 % 995,5 hPa 0,0 l/m 0 min 0 min 90 W/m 12,6 km/h (3 Bft)
04.11.2014 13:40 11,1 C 10,6 C 94 % 995,5 hPa 0,0 l/m 0 min 0 min 85 W/m 10,5 km/h (2 Bft)
04.11.2014 13:42 11,2 C 10,0 C 94 % 995,5 hPa 0,0 l/m 0 min 0 min 81 W/m 8,4 km/h (2 Bft)
04.11.2014 13:44 11,2 C 10,0 C 94 % 995,5 hPa 0,0 l/m 0 min 0 min 77 W/m 14,6 km/h (3 Bft)
04.11.2014 13:46 11,2 C 10,0 C 94 % 995,5 hPa 0,0 l/m 0 min 0 min 77 W/m 12,6 km/h (3 Bft)
04.11.2014 13:48 11,2 C 10,0 C 93 % 995,5 hPa 0,0 l/m 0 min 0 min 78 W/m 12,6 km/h (3 Bft)
04.11.2014 13:50 11,1 C 10,0 C 93 % 995,5 hPa 0,0 l/m 0 min 0 min 82 W/m 12,6 km/h (3 Bft)
04.11.2014 13:52 11,1 C 10,0 C 93 % 995,5 hPa 0,0 l/m 0 min 0 min 87 W/m 12,6 km/h (3 Bft)
04.11.2014 13:54 11,1 C 10,0 C 93 % 995,5 hPa 0,0 l/m 0 min 0 min 84 W/m 10,5 km/h (2 Bft)
04.11.2014 13:56 11,1 C 10,0 C 92 % 995,5 hPa 0,0 l/m 0 min 0 min 77 W/m 12,6 km/h (3 Bft)
04.11.2014 13:58 11,1 C 10,0 C 92 % 995,4 hPa 0,0 l/m 0 min 0 min 66 W/m 10,5 km/h (2 Bft)
04.11.2014 14:00 11,1 C 10,0 C 92 % 995,5 hPa 0,0 l/m 0 min 0 min 56 W/m 12,6 km/h (3 Bft)
04.11.2014 14:02 11,1 C 10,0 C 92 % 995,5 hPa 0,0 l/m 0 min 0 min 52 W/m 6,3 km/h (2 Bft)
04.11.2014 14:04 11,1 C 10,0 C 91 % 995,4 hPa 0,0 l/m 0 min 0 min 47 W/m 10,5 km/h (2 Bft)
04.11.2014 14:06 11,1 C 10,0 C 91 % 995,5 hPa 0,0 l/m 0 min 0 min 46 W/m 10,5 km/h (2 Bft)
04.11.2014 14:08 11,2 C 10,0 C 91 % 995,4 hPa 0,0 l/m 0 min 0 min 53 W/m 8,4 km/h (2 Bft)
04.11.2014 14:10 11,2 C 10,0 C 91 % 995,4 hPa 0,0 l/m 0 min 0 min 65 W/m 14,6 km/h (3 Bft)
04.11.2014 14:12 11,2 C 10,0 C 91 % 995,5 hPa 0,0 l/m 0 min 0 min 67 W/m 12,6 km/h (3 Bft)
04.11.2014 14:14 11,2 C 10,0 C 91 % 995,4 hPa 0,0 l/m 0 min 0 min 58 W/m 10,5 km/h (2 Bft)
04.11.2014 14:16 11,2 C 10,0 C 91 % 995,5 hPa 0,0 l/m 0 min 2 min 48 W/m 12,6 km/h (3 Bft)
04.11.2014 14:18 11,2 C 10,0 C 91 % 995,5 hPa 0,0 l/m 0 min 2 min 43 W/m 14,6 km/h (3 Bft)
04.11.2014 14:20 11,1 C 10,0 C 91 % 995,4 hPa 0,0 l/m 0 min 0 min 42 W/m 14,6 km/h (3 Bft)
04.11.2014 14:22 11,1 C 10,0 C 91 % 995,4 hPa 0,0 l/m 0 min 0 min 48 W/m 12,6 km/h (3 Bft)
04.11.2014 14:24 11,1 C 10,0 C 91 % 995,4 hPa 0,0 l/m 0 min 0 min 62 W/m 8,4 km/h (2 Bft)
04.11.2014 14:26 11,1 C 10,0 C 91 % 995,4 hPa 0,0 l/m 0 min 0 min 65 W/m 10,5 km/h (2 Bft)
04.11.2014 14:28 11,1 C 10,0 C 91 % 995,4 hPa 0,0 l/m 0 min 0 min 62 W/m 8,4 km/h (2 Bft)
04.11.2014 14:30 11,1 C 10,0 C 91 % 995,4 hPa 0,0 l/m 0 min 0 min 56 W/m 8,4 km/h (2 Bft)
04.11.2014 14:32 11,1 C 10,0 C 91 % 995,4 hPa 0,0 l/m 0 min 0 min 56 W/m 10,5 km/h (2 Bft)
04.11.2014 14:34 11,1 C 10,0 C 91 % 995,3 hPa 0,0 l/m 0 min 0 min 57 W/m 12,6 km/h (3 Bft)
04.11.2014 14:36 11,1 C 10,0 C 91 % 995,3 hPa 0,0 l/m 0 min 2 min 60 W/m 12,6 km/h (3 Bft)
04.11.2014 14:38 11,1 C 10,0 C 91 % 995,3 hPa 0,0 l/m 0 min 2 min 64 W/m 8,4 km/h (2 Bft)
04.11.2014 14:40 11,1 C 10,0 C 92 % 995,3 hPa 0,0 l/m 0 min 2 min 62 W/m 10,5 km/h (2 Bft)
04.11.2014 14:42 11,1 C 10,0 C 92 % 995,3 hPa 0,0 l/m 0 min 2 min 58 W/m 6,3 km/h (2 Bft)
04.11.2014 14:44 11,1 C 10,0 C 92 % 995,3 hPa 0,0 l/m 0 min 2 min 58 W/m 8,4 km/h (2 Bft)
04.11.2014 14:46 11,1 C 10,0 C 92 % 995,3 hPa 0,0 l/m 0 min 2 min 60 W/m 8,4 km/h (2 Bft)
04.11.2014 14:48 11,1 C 10,0 C 92 % 995,2 hPa 0,0 l/m 0 min 2 min 60 W/m 8,4 km/h (2 Bft)
04.11.2014 14:50 11,0 C 10,0 C 92 % 995,2 hPa 0,0 l/m 0 min 2 min 61 W/m 10,5 km/h (2 Bft)
04.11.2014 14:52 11,1 C 10,0 C 92 % 995,1 hPa 0,0 l/m 0 min 2 min 65 W/m 8,4 km/h (2 Bft)
04.11.2014 14:54 11,1 C 10,0 C 92 % 995,0 hPa 0,0 l/m 0 min 0 min 68 W/m 10,5 km/h (2 Bft)
04.11.2014 14:56 11,1 C 10,0 C 92 % 995,0 hPa 0,0 l/m 0 min 0 min 68 W/m 14,6 km/h (3 Bft)
04.11.2014 14:58 11,1 C 10,0 C 92 % 994,9 hPa 0,0 l/m 0 min 0 min 68 W/m 12,6 km/h (3 Bft)
04.11.2014 15:00 11,1 C 10,0 C 93 % 994,9 hPa 0,0 l/m 0 min 0 min 68 W/m 10,5 km/h (2 Bft)
04.11.2014 15:02 11,1 C 10,0 C 93 % 994,9 hPa 0,0 l/m 0 min 0 min 69 W/m 10,5 km/h (2 Bft)
04.11.2014 15:04 11,0 C 10,0 C 93 % 994,9 hPa 0,0 l/m 0 min 0 min 65 W/m 14,6 km/h (3 Bft)
04.11.2014 15:06 11,0 C 10,0 C 93 % 994,9 hPa 0,0 l/m 0 min 0 min 62 W/m 12,6 km/h (3 Bft)
04.11.2014 15:08 11,0 C 10,0 C 93 % 994,9 hPa 0,0 l/m 0 min 0 min 60 W/m 8,4 km/h (2 Bft)
04.11.2014 15:10 11,0 C 10,0 C 93 % 994,8 hPa 0,0 l/m 0 min 0 min 61 W/m 10,5 km/h (2 Bft)
04.11.2014 15:12 11,0 C 10,0 C 93 % 994,8 hPa 0,0 l/m 0 min 0 min 65 W/m 10,5 km/h (2 Bft)
04.11.2014 15:14 10,9 C 10,0 C 93 % 994,8 hPa 0,0 l/m 0 min 0 min 65 W/m 10,5 km/h (2 Bft)
04.11.2014 15:16 10,9 C 10,0 C 93 % 994,8 hPa 0,0 l/m 0 min 0 min 61 W/m 10,5 km/h (2 Bft)
04.11.2014 15:18 10,9 C 10,0 C 93 % 994,9 hPa 0,0 l/m 0 min 0 min 55 W/m 8,4 km/h (2 Bft)
04.11.2014 15:20 10,9 C 10,0 C 93 % 994,8 hPa 0,0 l/m 0 min 0 min 52 W/m 10,5 km/h (2 Bft)
04.11.2014 15:22 10,9 C 10,0 C 93 % 994,9 hPa 0,0 l/m 0 min 0 min 49 W/m 10,5 km/h (2 Bft)
04.11.2014 15:24 10,8 C 9,4 C 93 % 994,9 hPa 0,0 l/m 0 min 0 min 47 W/m 8,4 km/h (2 Bft)
04.11.2014 15:26 10,8 C 9,4 C 93 % 994,9 hPa 0,0 l/m 0 min 0 min 44 W/m 10,5 km/h (2 Bft)
04.11.2014 15:28 10,8 C 9,4 C 93 % 995,0 hPa 0,0 l/m 0 min 0 min 42 W/m 10,5 km/h (2 Bft)
04.11.2014 15:30 10,8 C 9,4 C 93 % 995,1 hPa 0,0 l/m 0 min 0 min 40 W/m 8,4 km/h (2 Bft)
04.11.2014 15:32 10,8 C 9,4 C 93 % 995,1 hPa 0,0 l/m 0 min 0 min 40 W/m 8,4 km/h (2 Bft)
04.11.2014 15:34 10,8 C 9,4 C 93 % 995,2 hPa 0,0 l/m 0 min 0 min 40 W/m 8,4 km/h (2 Bft)
04.11.2014 15:36 10,8 C 9,4 C 93 % 995,2 hPa 0,0 l/m 0 min 0 min 42 W/m 8,4 km/h (2 Bft)
04.11.2014 15:38 10,8 C 9,4 C 93 % 995,2 hPa 0,0 l/m 0 min 0 min 40 W/m 8,4 km/h (2 Bft)
04.11.2014 15:40 10,8 C 9,4 C 93 % 995,2 hPa 0,0 l/m 0 min 0 min 38 W/m 8,4 km/h (2 Bft)
04.11.2014 15:42 10,7 C 9,4 C 93 % 995,3 hPa 0,0 l/m 0 min 0 min 35 W/m 8,4 km/h (2 Bft)
04.11.2014 15:44 10,7 C 9,4 C 93 % 995,3 hPa 0,0 l/m 0 min 0 min 33 W/m 8,4 km/h (2 Bft)
04.11.2014 15:46 10,7 C 9,4 C 93 % 995,4 hPa 0,0 l/m 0 min 0 min 32 W/m 12,6 km/h (3 Bft)
04.11.2014 15:48 10,7 C 9,4 C 93 % 995,4 hPa 0,0 l/m 0 min 0 min 30 W/m 8,4 km/h (2 Bft)
04.11.2014 15:50 10,7 C 9,4 C 94 % 995,4 hPa 0,0 l/m 0 min 0 min 27 W/m 8,4 km/h (2 Bft)
04.11.2014 15:52 10,7 C 9,4 C 94 % 995,4 hPa 0,0 l/m 0 min 0 min 25 W/m 6,3 km/h (2 Bft)
04.11.2014 15:54 10,7 C 9,4 C 94 % 995,4 hPa 0,0 l/m 0 min 0 min 23 W/m 6,3 km/h (2 Bft)
04.11.2014 15:56 10,7 C 9,4 C 94 % 995,5 hPa 0,0 l/m 0 min 2 min 22 W/m 8,4 km/h (2 Bft)
04.11.2014 15:58 10,6 C 9,4 C 94 % 995,5 hPa 0,0 l/m 0 min 0 min 21 W/m 12,6 km/h (3 Bft)
04.11.2014 16:00 10,6 C 9,4 C 94 % 995,6 hPa 0,0 l/m 0 min 0 min 18 W/m 12,6 km/h (3 Bft)
04.11.2014 16:02 10,6 C 9,4 C 94 % 995,6 hPa 0,0 l/m 0 min 0 min 18 W/m 10,5 km/h (2 Bft)
04.11.2014 16:04 10,6 C 9,4 C 94 % 995,6 hPa 0,0 l/m 0 min 0 min 18 W/m 10,5 km/h (2 Bft)
04.11.2014 16:06 10,6 C 9,4 C 94 % 995,5 hPa 0,0 l/m 0 min 0 min 18 W/m 10,5 km/h (2 Bft)
04.11.2014 16:08 10,6 C 9,4 C 94 % 995,5 hPa 0,0 l/m 0 min 0 min 18 W/m 8,4 km/h (2 Bft)
04.11.2014 16:10 10,5 C 9,4 C 94 % 995,6 hPa 0,0 l/m 0 min 0 min 16 W/m 8,4 km/h (2 Bft)
04.11.2014 16:12 10,5 C 9,4 C 94 % 995,6 hPa 0,0 l/m 0 min 2 min 16 W/m 6,3 km/h (2 Bft)
04.11.2014 16:14 10,5 C 9,4 C 94 % 995,7 hPa 0,0 l/m 0 min 2 min 15 W/m 8,4 km/h (2 Bft)
04.11.2014 16:16 10,4 C 9,4 C 94 % 995,7 hPa 0,0 l/m 0 min 2 min 14 W/m 10,5 km/h (2 Bft)
04.11.2014 16:18 10,4 C 9,4 C 94 % 995,7 hPa 0,0 l/m 0 min 2 min 14 W/m 8,4 km/h (2 Bft)
04.11.2014 16:20 10,4 C 9,4 C 94 % 995,8 hPa 0,0 l/m 0 min 2 min 12 W/m 6,3 km/h (2 Bft)
04.11.2014 16:22 10,4 C 9,4 C 94 % 995,9 hPa 0,0 l/m 0 min 2 min 11 W/m 6,3 km/h (2 Bft)
04.11.2014 16:24 10,4 C 9,4 C 94 % 995,8 hPa 0,0 l/m 0 min 2 min 11 W/m 8,4 km/h (2 Bft)
04.11.2014 16:26 10,4 C 8,9 C 94 % 995,8 hPa 0,0 l/m 0 min 2 min 11 W/m 6,3 km/h (2 Bft)
04.11.2014 16:28 10,4 C 8,9 C 94 % 995,8 hPa 0,0 l/m 0 min 2 min 11 W/m 6,3 km/h (2 Bft)
04.11.2014 16:30 10,4 C 8,9 C 94 % 995,7 hPa 0,0 l/m 0 min 2 min 11 W/m 10,5 km/h (2 Bft)
04.11.2014 16:32 10,4 C 8,9 C 94 % 995,7 hPa 0,0 l/m 0 min 2 min 10 W/m 8,4 km/h (2 Bft)
04.11.2014 16:34 10,3 C 8,9 C 94 % 995,7 hPa 0,0 l/m 0 min 2 min 9 W/m 6,3 km/h (2 Bft)
04.11.2014 16:36 10,3 C 8,9 C 94 % 995,8 hPa 0,0 l/m 0 min 2 min 7 W/m 6,3 km/h (2 Bft)
04.11.2014 16:38 10,3 C 8,9 C 94 % 995,8 hPa 0,0 l/m 0 min 2 min 7 W/m 10,5 km/h (2 Bft)
04.11.2014 16:40 10,3 C 8,9 C 94 % 995,7 hPa 0,0 l/m 0 min 2 min 6 W/m 8,4 km/h (2 Bft)
04.11.2014 16:42 10,3 C 8,9 C 94 % 995,7 hPa 0,0 l/m 0 min 2 min 5 W/m 8,4 km/h (2 Bft)
04.11.2014 16:44 10,3 C 8,9 C 94 % 995,7 hPa 0,0 l/m 0 min 2 min 5 W/m 10,5 km/h (2 Bft)
04.11.2014 16:46 10,3 C 8,9 C 94 % 995,6 hPa 0,0 l/m 0 min 2 min 5 W/m 10,5 km/h (2 Bft)
04.11.2014 16:48 10,3 C 8,9 C 94 % 995,6 hPa 0,0 l/m 0 min 2 min 5 W/m 10,5 km/h (2 Bft)
04.11.2014 16:50 10,3 C 8,9 C 94 % 995,6 hPa 0,0 l/m 0 min 2 min 5 W/m 8,4 km/h (2 Bft)
04.11.2014 16:52 10,3 C 8,9 C 94 % 995,6 hPa 0,0 l/m 0 min 2 min 4 W/m 10,5 km/h (2 Bft)
04.11.2014 16:54 10,2 C 8,9 C 94 % 995,6 hPa 0,0 l/m 0 min 2 min 0 W/m 10,5 km/h (2 Bft)
04.11.2014 16:56 10,2 C 8,9 C 94 % 995,5 hPa 0,0 l/m 0 min 2 min 0 W/m 8,4 km/h (2 Bft)
04.11.2014 16:58 10,2 C 8,9 C 94 % 995,4 hPa 0,0 l/m 0 min 2 min 0 W/m 8,4 km/h (2 Bft)
04.11.2014 17:00 10,2 C 8,9 C 94 % 995,4 hPa 0,0 l/m 0 min 2 min 0 W/m 14,6 km/h (3 Bft)
04.11.2014 17:02 10,2 C 8,9 C 94 % 995,4 hPa 0,0 l/m 0 min 2 min 5 W/m 8,4 km/h (2 Bft)
04.11.2014 17:04 10,2 C 8,9 C 94 % 995,4 hPa 0,0 l/m 0 min 2 min 7 W/m 12,6 km/h (3 Bft)
04.11.2014 17:06 10,2 C 8,9 C 94 % 995,5 hPa 0,0 l/m 0 min 2 min 6 W/m 8,4 km/h (2 Bft)
04.11.2014 17:08 10,2 C 8,9 C 94 % 995,5 hPa 0,0 l/m 0 min 2 min 3 W/m 12,6 km/h (3 Bft)
04.11.2014 17:10 10,1 C 8,9 C 94 % 995,5 hPa 0,0 l/m 0 min 2 min 0 W/m 8,4 km/h (2 Bft)
04.11.2014 17:12 10,1 C 8,3 C 95 % 995,6 hPa 0,0 l/m 0 min 2 min 0 W/m 8,4 km/h (2 Bft)
04.11.2014 17:14 10,1 C 8,3 C 95 % 995,6 hPa 0,0 l/m 0 min 2 min 0 W/m 10,5 km/h (2 Bft)
04.11.2014 17:16 10,1 C 8,3 C 95 % 995,7 hPa 0,0 l/m 0 min 2 min 0 W/m 8,4 km/h (2 Bft)
04.11.2014 17:18 10,1 C 8,3 C 95 % 995,7 hPa 0,0 l/m 0 min 2 min 0 W/m 8,4 km/h (2 Bft)
04.11.2014 17:20 10,1 C 8,3 C 95 % 995,7 hPa 0,0 l/m 0 min 2 min 0 W/m 6,3 km/h (2 Bft)
04.11.2014 17:22 10,0 C 8,3 C 95 % 995,7 hPa 0,0 l/m 0 min 2 min 0 W/m 8,4 km/h (2 Bft)
04.11.2014 17:24 10,0 C 8,3 C 95 % 995,7 hPa 0,0 l/m 0 min 2 min 0 W/m 6,3 km/h (2 Bft)
04.11.2014 17:26 10,0 C 8,3 C 95 % 995,7 hPa 0,0 l/m 0 min 2 min 0 W/m 8,4 km/h (2 Bft)
04.11.2014 17:28 9,9 C 8,3 C 95 % 995,7 hPa 0,0 l/m 0 min 2 min 0 W/m 4,2 km/h (1 Bft)
04.11.2014 17:30 9,9 C 8,3 C 95 % 995,8 hPa 0,0 l/m 0 min 2 min 0 W/m 4,2 km/h (1 Bft)
04.11.2014 17:32 9,9 C 8,3 C 94 % 995,8 hPa 0,0 l/m 0 min 2 min 0 W/m 4,2 km/h (1 Bft)
04.11.2014 17:34 9,9 C 8,3 C 94 % 995,8 hPa 0,0 l/m 0 min 2 min 0 W/m 4,2 km/h (1 Bft)
04.11.2014 17:36 9,9 C 8,3 C 95 % 995,8 hPa 0,0 l/m 0 min 2 min 0 W/m 6,3 km/h (2 Bft)
04.11.2014 17:38 9,9 C 8,3 C 95 % 995,8 hPa 0,0 l/m 0 min 2 min 0 W/m 6,3 km/h (2 Bft)
04.11.2014 17:40 9,8 C 8,3 C 95 % 995,8 hPa 0,0 l/m 0 min 2 min 0 W/m 6,3 km/h (2 Bft)
04.11.2014 17:42 9,8 C 8,3 C 95 % 995,7 hPa 0,0 l/m 0 min 2 min 0 W/m 6,3 km/h (2 Bft)
04.11.2014 17:44 9,8 C 8,3 C 95 % 995,7 hPa 0,0 l/m 0 min 2 min 0 W/m 4,2 km/h (1 Bft)
04.11.2014 17:46 9,8 C 8,3 C 95 % 995,8 hPa 0,0 l/m 0 min 2 min 0 W/m 4,2 km/h (1 Bft)
04.11.2014 17:48 9,8 C 8,3 C 95 % 995,8 hPa 0,0 l/m 0 min 2 min 0 W/m 4,2 km/h (1 Bft)
04.11.2014 17:50 9,8 C 8,3 C 95 % 995,8 hPa 0,0 l/m 0 min 2 min 0 W/m 4,2 km/h (1 Bft)
04.11.2014 17:52 9,7 C 8,3 C 95 % 995,8 hPa 0,0 l/m 0 min 2 min 0 W/m 4,2 km/h (1 Bft)
04.11.2014 17:54 9,7 C 8,3 C 95 % 995,8 hPa 0,0 l/m 0 min 2 min 0 W/m 6,3 km/h (2 Bft)
04.11.2014 17:56 9,7 C 8,3 C 95 % 995,8 hPa 0,0 l/m 0 min 2 min 0 W/m 8,4 km/h (2 Bft)
04.11.2014 17:58 9,7 C 8,3 C 95 % 995,8 hPa 0,0 l/m 0 min 2 min 0 W/m 6,3 km/h (2 Bft)
04.11.2014 18:00 9,7 C 8,3 C 95 % 995,8 hPa 0,0 l/m 0 min 2 min 0 W/m 4,2 km/h (1 Bft)
04.11.2014 18:02 9,7 C 8,3 C 95 % 995,8 hPa 0,0 l/m 0 min 2 min 0 W/m 4,2 km/h (1 Bft)
04.11.2014 18:05 9,6 C 8,3 C 95 % 995,9 hPa 0,0 l/m 0 min 2 min 0 W/m 4,2 km/h (1 Bft)
04.11.2014 18:08 9,6 C 8,3 C 95 % 995,9 hPa 0,0 l/m 0 min 2 min 0 W/m 4,2 km/h (1 Bft)
04.11.2014 18:10 9,6 C 8,3 C 95 % 995,9 hPa 0,0 l/m 0 min 2 min 0 W/m 4,2 km/h (1 Bft)
04.11.2014 18:12 9,6 C 8,3 C 95 % 995,9 hPa 0,0 l/m 0 min 2 min 0 W/m 4,2 km/h (1 Bft)
04.11.2014 18:14 9,6 C 8,3 C 95 % 995,9 hPa 0,0 l/m 0 min 2 min 0 W/m 6,3 km/h (2 Bft)
04.11.2014 18:16 9,6 C 8,3 C 95 % 995,9 hPa 0,0 l/m 0 min 2 min 0 W/m 6,3 km/h (2 Bft)
04.11.2014 18:18 9,6 C 8,3 C 95 % 996,0 hPa 0,0 l/m 0 min 2 min 0 W/m 6,3 km/h (2 Bft)
04.11.2014 18:20 9,6 C 8,3 C 95 % 995,9 hPa 0,0 l/m 0 min 2 min 0 W/m 6,3 km/h (2 Bft)
04.11.2014 18:22 9,5 C 8,3 C 95 % 995,9 hPa 0,0 l/m 0 min 2 min 0 W/m 6,3 km/h (2 Bft)
04.11.2014 18:24 9,5 C 8,3 C 95 % 995,9 hPa 0,0 l/m 0 min 2 min 0 W/m 6,3 km/h (2 Bft)
04.11.2014 18:26 9,5 C 8,3 C 95 % 996,0 hPa 0,0 l/m 0 min 2 min 0 W/m 6,3 km/h (2 Bft)
04.11.2014 18:28 9,5 C 8,3 C 95 % 996,0 hPa 0,0 l/m 0 min 2 min 0 W/m 4,2 km/h (1 Bft)
04.11.2014 18:30 9,5 C 8,3 C 95 % 996,0 hPa 0,0 l/m 0 min 2 min 0 W/m 4,2 km/h (1 Bft)
04.11.2014 18:32 9,5 C 8,3 C 95 % 995,9 hPa 0,0 l/m 0 min 2 min 0 W/m 2,1 km/h (1 Bft)
04.11.2014 18:34 9,5 C 8,3 C 95 % 995,8 hPa 0,0 l/m 0 min 2 min 0 W/m 4,2 km/h (1 Bft)
04.11.2014 18:36 9,5 C 8,3 C 95 % 995,8 hPa 0,0 l/m 0 min 2 min 0 W/m 4,2 km/h (1 Bft)
04.11.2014 18:38 9,4 C 8,3 C 95 % 995,9 hPa 0,0 l/m 0 min 2 min 0 W/m 4,2 km/h (1 Bft)
04.11.2014 18:40 9,4 C 8,3 C 95 % 995,8 hPa 0,0 l/m 0 min 2 min 0 W/m 4,2 km/h (1 Bft)
04.11.2014 18:42 9,4 C 8,3 C 95 % 995,8 hPa 0,0 l/m 0 min 2 min 0 W/m 2,1 km/h (1 Bft)
04.11.2014 18:44 9,4 C 8,3 C 95 % 996,0 hPa 0,0 l/m 0 min 2 min 0 W/m 4,2 km/h (1 Bft)
04.11.2014 18:46 9,4 C 8,3 C 95 % 996,1 hPa 0,0 l/m 0 min 2 min 0 W/m 4,2 km/h (1 Bft)
04.11.2014 18:48 9,4 C 8,3 C 95 % 996,2 hPa 0,0 l/m 0 min 2 min 0 W/m 6,3 km/h (2 Bft)
04.11.2014 18:50 9,4 C 8,3 C 95 % 996,3 hPa 0,0 l/m 0 min 2 min 0 W/m 6,3 km/h (2 Bft)
04.11.2014 18:52 9,4 C 8,3 C 95 % 996,2 hPa 0,0 l/m 0 min 2 min 0 W/m 4,2 km/h (1 Bft)
04.11.2014 18:54 9,4 C 8,3 C 95 % 996,1 hPa 0,0 l/m 0 min 2 min 0 W/m 2,1 km/h (1 Bft)
04.11.2014 18:56 9,4 C 8,3 C 95 % 996,1 hPa 0,0 l/m 0 min 2 min 0 W/m 2,1 km/h (1 Bft)
04.11.2014 18:58 9,4 C 8,3 C 95 % 996,1 hPa 0,0 l/m 0 min 2 min 0 W/m 4,2 km/h (1 Bft)
04.11.2014 19:00 9,4 C 8,3 C 95 % 996,1 hPa 0,0 l/m 0 min 2 min 0 W/m 4,2 km/h (1 Bft)
04.11.2014 19:02 9,4 C 8,3 C 95 % 996,1 hPa 0,0 l/m 0 min 2 min 0 W/m 4,2 km/h (1 Bft)
04.11.2014 19:04 9,4 C 8,3 C 95 % 996,0 hPa 0,0 l/m 0 min 2 min 0 W/m 2,1 km/h (1 Bft)
04.11.2014 19:06 9,4 C 8,3 C 95 % 996,0 hPa 0,0 l/m 0 min 2 min 0 W/m 2,1 km/h (1 Bft)
04.11.2014 19:08 9,4 C 8,3 C 95 % 996,0 hPa 0,0 l/m 0 min 2 min 0 W/m 2,1 km/h (1 Bft)
04.11.2014 19:10 9,4 C 8,3 C 95 % 996,0 hPa 0,0 l/m 0 min 2 min 0 W/m 4,2 km/h (1 Bft)
04.11.2014 19:12 9,4 C 8,3 C 95 % 995,9 hPa 0,0 l/m 0 min 2 min 0 W/m 4,2 km/h (1 Bft)
04.11.2014 19:14 9,4 C 8,3 C 95 % 995,8 hPa 0,0 l/m 0 min 2 min 0 W/m 4,2 km/h (1 Bft)
04.11.2014 19:16 9,4 C 8,3 C 95 % 995,9 hPa 0,0 l/m 0 min 2 min 0 W/m 4,2 km/h (1 Bft)
04.11.2014 19:18 9,4 C 8,3 C 95 % 996,0 hPa 0,0 l/m 0 min 2 min 0 W/m 2,1 km/h (1 Bft)
04.11.2014 19:20 9,4 C 8,3 C 95 % 996,1 hPa 0,0 l/m 0 min 2 min 0 W/m 4,2 km/h (1 Bft)
04.11.2014 19:22 9,4 C 8,3 C 95 % 996,1 hPa 0,0 l/m 0 min 2 min 0 W/m 4,2 km/h (1 Bft)
04.11.2014 19:24 9,4 C 8,3 C 95 % 996,0 hPa 0,0 l/m 0 min 2 min 0 W/m 2,1 km/h (1 Bft)
04.11.2014 19:26 9,4 C 8,3 C 95 % 996,1 hPa 0,0 l/m 0 min 2 min 0 W/m 4,2 km/h (1 Bft)
04.11.2014 19:28 9,4 C 8,3 C 95 % 996,1 hPa 0,0 l/m 0 min 2 min 0 W/m 2,1 km/h (1 Bft)
04.11.2014 19:30 9,4 C 8,3 C 95 % 996,0 hPa 0,0 l/m 0 min 2 min 0 W/m 4,2 km/h (1 Bft)
04.11.2014 19:32 9,4 C 8,3 C 95 % 995,9 hPa 0,0 l/m 0 min 2 min 0 W/m 4,2 km/h (1 Bft)
04.11.2014 19:34 9,4 C 8,3 C 95 % 996,0 hPa 0,0 l/m 0 min 2 min 0 W/m 4,2 km/h (1 Bft)
04.11.2014 19:36 9,4 C 8,3 C 96 % 996,0 hPa 0,0 l/m 0 min 2 min 0 W/m 2,1 km/h (1 Bft)
04.11.2014 19:38 9,4 C 8,3 C 96 % 995,9 hPa 0,0 l/m 0 min 2 min 0 W/m 2,1 km/h (1 Bft)
04.11.2014 19:40 9,4 C 8,3 C 96 % 995,9 hPa 0,0 l/m 0 min 2 min 0 W/m 2,1 km/h (1 Bft)
04.11.2014 19:42 9,4 C 8,3 C 96 % 995,9 hPa 0,0 l/m 0 min 2 min 0 W/m 2,1 km/h (1 Bft)
04.11.2014 19:44 9,4 C 8,3 C 96 % 995,9 hPa 0,0 l/m 0 min 2 min 0 W/m 2,1 km/h (1 Bft)
04.11.2014 19:46 9,4 C 8,3 C 96 % 995,9 hPa 0,0 l/m 0 min 2 min 0 W/m 2,1 km/h (1 Bft)
04.11.2014 19:48 9,4 C 8,3 C 96 % 995,9 hPa 0,0 l/m 0 min 2 min 0 W/m 2,1 km/h (1 Bft)
04.11.2014 19:50 9,4 C 8,3 C 96 % 995,9 hPa 0,0 l/m 0 min 2 min 0 W/m 2,1 km/h (1 Bft)
04.11.2014 19:52 9,4 C 8,3 C 96 % 995,9 hPa 0,0 l/m 0 min 2 min 0 W/m 2,1 km/h (1 Bft)
04.11.2014 19:54 9,4 C 8,3 C 96 % 996,0 hPa 0,0 l/m 0 min 2 min 0 W/m 4,2 km/h (1 Bft)
04.11.2014 19:56 9,4 C 8,3 C 96 % 996,1 hPa 0,0 l/m 0 min 2 min 0 W/m 4,2 km/h (1 Bft)
04.11.2014 19:58 9,4 C 8,3 C 96 % 996,1 hPa 0,0 l/m 0 min 2 min 0 W/m 6,3 km/h (2 Bft)
04.11.2014 20:00 9,4 C 8,3 C 96 % 996,1 hPa 0,0 l/m 0 min 2 min 0 W/m 4,2 km/h (1 Bft)
04.11.2014 20:02 9,4 C 8,3 C 96 % 996,1 hPa 0,0 l/m 0 min 2 min 0 W/m 4,2 km/h (1 Bft)
04.11.2014 20:04 9,4 C 8,3 C 96 % 996,1 hPa 0,0 l/m 0 min 2 min 0 W/m 4,2 km/h (1 Bft)
04.11.2014 20:06 9,4 C 8,3 C 96 % 996,1 hPa 0,0 l/m 0 min 2 min 0 W/m 2,1 km/h (1 Bft)
04.11.2014 20:08 9,4 C 8,3 C 96 % 996,1 hPa 0,0 l/m 0 min 2 min 0 W/m 2,1 km/h (1 Bft)
04.11.2014 20:10 9,4 C 8,3 C 96 % 996,0 hPa 0,0 l/m 0 min 2 min 0 W/m 2,1 km/h (1 Bft)
04.11.2014 20:12 9,4 C 8,3 C 96 % 996,1 hPa 0,0 l/m 0 min 2 min 0 W/m 2,1 km/h (1 Bft)
04.11.2014 20:14 9,4 C 8,3 C 96 % 996,2 hPa 0,0 l/m 0 min 2 min 0 W/m 4,2 km/h (1 Bft)
04.11.2014 20:16 9,4 C 8,3 C 96 % 996,3 hPa 0,0 l/m 0 min 2 min 0 W/m 4,2 km/h (1 Bft)
04.11.2014 20:18 9,4 C 8,3 C 96 % 996,4 hPa 0,0 l/m 0 min 2 min 0 W/m 4,2 km/h (1 Bft)
04.11.2014 20:20 9,4 C 8,3 C 96 % 996,4 hPa 0,0 l/m 0 min 2 min 0 W/m 6,3 km/h (2 Bft)
04.11.2014 20:22 9,4 C 8,3 C 96 % 996,4 hPa 0,0 l/m 0 min 2 min 0 W/m 6,3 km/h (2 Bft)
04.11.2014 20:24 9,4 C 8,3 C 96 % 996,4 hPa 0,0 l/m 0 min 2 min 0 W/m 2,1 km/h (1 Bft)
04.11.2014 20:26 9,4 C 8,3 C 96 % 996,4 hPa 0,0 l/m 0 min 2 min 0 W/m 2,1 km/h (1 Bft)
04.11.2014 20:28 9,4 C 8,3 C 96 % 996,3 hPa 0,0 l/m 0 min 2 min 0 W/m 2,1 km/h (1 Bft)
04.11.2014 20:30 9,4 C 8,3 C 96 % 996,2 hPa 0,0 l/m 0 min 2 min 0 W/m 2,1 km/h (1 Bft)
04.11.2014 20:32 9,4 C 8,3 C 96 % 996,2 hPa 0,0 l/m 0 min 2 min 0 W/m 4,2 km/h (1 Bft)
04.11.2014 20:34 9,4 C 8,3 C 96 % 996,2 hPa 0,0 l/m 0 min 2 min 0 W/m 4,2 km/h (1 Bft)
04.11.2014 20:36 9,4 C 8,3 C 96 % 996,3 hPa 0,0 l/m 0 min 2 min 0 W/m 4,2 km/h (1 Bft)
04.11.2014 20:38 9,4 C 8,3 C 96 % 996,2 hPa 0,0 l/m 0 min 2 min 0 W/m 4,2 km/h (1 Bft)
04.11.2014 20:40 9,4 C 8,3 C 96 % 996,1 hPa 0,0 l/m 0 min 2 min 0 W/m 2,1 km/h (1 Bft)
04.11.2014 20:42 9,4 C 8,3 C 96 % 996,0 hPa 0,0 l/m 0 min 2 min 0 W/m 2,1 km/h (1 Bft)
04.11.2014 20:44 9,4 C 8,3 C 96 % 996,0 hPa 0,0 l/m 0 min 2 min 0 W/m 4,2 km/h (1 Bft)
04.11.2014 20:46 9,4 C 8,3 C 96 % 996,0 hPa 0,0 l/m 0 min 2 min 0 W/m 4,2 km/h (1 Bft)
04.11.2014 20:48 9,4 C 8,3 C 96 % 995,9 hPa 0,0 l/m 0 min 2 min 0 W/m 2,1 km/h (1 Bft)
04.11.2014 20:50 9,4 C 8,3 C 96 % 995,9 hPa 0,0 l/m 0 min 2 min 0 W/m 2,1 km/h (1 Bft)
04.11.2014 20:52 9,4 C 8,3 C 96 % 995,9 hPa 0,0 l/m 0 min 2 min 0 W/m 4,2 km/h (1 Bft)
04.11.2014 20:54 9,4 C 8,3 C 96 % 995,9 hPa 0,0 l/m 0 min 2 min 0 W/m 4,2 km/h (1 Bft)
04.11.2014 20:56 9,4 C 8,3 C 96 % 995,9 hPa 0,0 l/m 0 min 2 min 0 W/m 4,2 km/h (1 Bft)
04.11.2014 20:58 9,4 C 8,3 C 96 % 996,0 hPa 0,0 l/m 0 min 2 min 0 W/m 4,2 km/h (1 Bft)
04.11.2014 21:00 9,4 C 8,3 C 96 % 996,0 hPa 0,0 l/m 0 min 2 min 0 W/m 4,2 km/h (1 Bft)
04.11.2014 21:02 9,4 C 8,3 C 96 % 996,0 hPa 0,0 l/m 0 min 2 min 0 W/m 2,1 km/h (1 Bft)
04.11.2014 21:04 9,4 C 8,3 C 96 % 995,9 hPa 0,0 l/m 0 min 2 min 0 W/m 2,1 km/h (1 Bft)
04.11.2014 21:06 9,4 C 8,3 C 96 % 995,9 hPa 0,0 l/m 0 min 2 min 0 W/m 2,1 km/h (1 Bft)
04.11.2014 21:08 9,4 C 8,3 C 96 % 995,8 hPa 0,0 l/m 0 min 2 min 0 W/m 2,1 km/h (1 Bft)
04.11.2014 21:10 9,4 C 8,3 C 96 % 995,8 hPa 0,0 l/m 0 min 2 min 0 W/m 4,2 km/h (1 Bft)
04.11.2014 21:12 9,4 C 8,3 C 96 % 995,8 hPa 0,0 l/m 0 min 2 min 0 W/m 2,1 km/h (1 Bft)
04.11.2014 21:14 9,4 C 7,8 C 96 % 995,7 hPa 0,0 l/m 0 min 2 min 0 W/m 2,1 km/h (1 Bft)
04.11.2014 21:16 9,4 C 7,8 C 96 % 995,7 hPa 0,0 l/m 0 min 2 min 0 W/m 2,1 km/h (1 Bft)
04.11.2014 21:18 9,3 C 7,8 C 96 % 995,8 hPa 0,0 l/m 0 min 2 min 0 W/m 2,1 km/h (1 Bft)
04.11.2014 21:20 9,4 C 7,8 C 96 % 995,9 hPa 0,0 l/m 0 min 2 min 0 W/m 2,1 km/h (1 Bft)
04.11.2014 21:22 9,3 C 7,8 C 96 % 995,9 hPa 0,0 l/m 0 min 2 min 0 W/m 2,1 km/h (1 Bft)
04.11.2014 21:24 9,3 C 7,8 C 96 % 995,9 hPa 0,0 l/m 0 min 2 min 0 W/m 2,1 km/h (1 Bft)
04.11.2014 21:26 9,3 C 7,8 C 96 % 995,9 hPa 0,0 l/m 0 min 2 min 0 W/m 4,2 km/h (1 Bft)
04.11.2014 21:28 9,3 C 7,8 C 96 % 996,0 hPa 0,0 l/m 0 min 2 min 0 W/m 4,2 km/h (1 Bft)
04.11.2014 21:30 9,3 C 7,8 C 96 % 996,1 hPa 0,0 l/m 0 min 2 min 0 W/m 4,2 km/h (1 Bft)
04.11.2014 21:32 9,3 C 7,8 C 96 % 996,2 hPa 0,0 l/m 0 min 2 min 0 W/m 4,2 km/h (1 Bft)
04.11.2014 21:34 9,3 C 7,8 C 96 % 996,3 hPa 0,0 l/m 0 min 2 min 0 W/m 2,1 km/h (1 Bft)
04.11.2014 21:36 9,3 C 7,8 C 96 % 996,4 hPa 0,0 l/m 0 min 2 min 0 W/m 2,1 km/h (1 Bft)
04.11.2014 21:38 9,3 C 7,8 C 96 % 996,4 hPa 0,0 l/m 0 min 2 min 0 W/m 2,1 km/h (1 Bft)
04.11.2014 21:40 9,3 C 7,8 C 96 % 996,5 hPa 0,0 l/m 0 min 2 min 0 W/m 4,2 km/h (1 Bft)
04.11.2014 21:42 9,2 C 7,8 C 96 % 996,6 hPa 0,0 l/m 0 min 2 min 0 W/m 4,2 km/h (1 Bft)
04.11.2014 21:44 9,2 C 7,8 C 96 % 996,6 hPa 0,0 l/m 0 min 2 min 0 W/m 4,2 km/h (1 Bft)
04.11.2014 21:46 9,2 C 7,8 C 96 % 996,6 hPa 0,0 l/m 0 min 2 min 0 W/m 4,2 km/h (1 Bft)
04.11.2014 21:48 9,2 C 7,8 C 96 % 996,5 hPa 0,0 l/m 0 min 2 min 0 W/m 4,2 km/h (1 Bft)
04.11.2014 21:50 9,2 C 7,8 C 96 % 996,6 hPa 0,0 l/m 0 min 2 min 0 W/m 4,2 km/h (1 Bft)
04.11.2014 21:52 9,2 C 7,8 C 96 % 996,6 hPa 0,0 l/m 0 min 2 min 0 W/m 2,1 km/h (1 Bft)
04.11.2014 21:54 9,2 C 7,8 C 96 % 996,6 hPa 0,0 l/m 0 min 2 min 0 W/m 4,2 km/h (1 Bft)
04.11.2014 21:56 9,2 C 7,8 C 96 % 996,6 hPa 0,0 l/m 0 min 2 min 0 W/m 2,1 km/h (1 Bft)
04.11.2014 21:58 9,2 C 7,8 C 96 % 996,5 hPa 0,0 l/m 0 min 2 min 0 W/m 2,1 km/h (1 Bft)
04.11.2014 22:00 9,2 C 7,8 C 96 % 996,4 hPa 0,0 l/m 0 min 2 min 0 W/m 2,1 km/h (1 Bft)
04.11.2014 22:02 9,2 C 7,8 C 96 % 996,3 hPa 0,0 l/m 0 min 2 min 0 W/m 2,1 km/h (1 Bft)
04.11.2014 22:04 9,1 C 7,8 C 96 % 996,4 hPa 0,0 l/m 0 min 2 min 0 W/m 2,1 km/h (1 Bft)
04.11.2014 22:06 9,1 C 7,8 C 96 % 996,3 hPa 0,0 l/m 0 min 2 min 0 W/m 0,0 km/h (0 Bft)
04.11.2014 22:08 9,1 C 7,8 C 96 % 996,4 hPa 0,0 l/m 0 min 2 min 0 W/m 0,0 km/h (0 Bft)
04.11.2014 22:10 9,1 C 7,8 C 96 % 996,4 hPa 0,0 l/m 0 min 2 min 0 W/m 2,1 km/h (1 Bft)
04.11.2014 22:12 9,1 C 7,8 C 96 % 996,3 hPa 0,0 l/m 0 min 2 min 0 W/m 2,1 km/h (1 Bft)
04.11.2014 22:14 9,1 C 7,8 C 96 % 996,3 hPa 0,0 l/m 0 min 2 min 0 W/m 2,1 km/h (1 Bft)
04.11.2014 22:16 9,1 C 7,8 C 96 % 996,2 hPa 0,0 l/m 0 min 2 min 0 W/m 2,1 km/h (1 Bft)
04.11.2014 22:18 9,1 C 7,8 C 96 % 996,3 hPa 0,0 l/m 0 min 2 min 0 W/m 2,1 km/h (1 Bft)
04.11.2014 22:20 9,1 C 7,8 C 96 % 996,3 hPa 0,0 l/m 0 min 2 min 0 W/m 2,1 km/h (1 Bft)
04.11.2014 22:22 9,1 C 7,8 C 96 % 996,3 hPa 0,0 l/m 0 min 2 min 0 W/m 2,1 km/h (1 Bft)
04.11.2014 22:24 9,0 C 7,8 C 96 % 996,3 hPa 0,0 l/m 0 min 2 min 0 W/m 2,1 km/h (1 Bft)
04.11.2014 22:26 9,0 C 7,8 C 96 % 996,3 hPa 0,0 l/m 0 min 2 min 0 W/m 0,0 km/h (0 Bft)
04.11.2014 22:28 9,0 C 7,8 C 96 % 996,3 hPa 0,0 l/m 0 min 2 min 0 W/m 0,0 km/h (0 Bft)
04.11.2014 22:30 9,0 C 7,8 C 96 % 996,4 hPa 0,0 l/m 0 min 2 min 0 W/m 0,0 km/h (0 Bft)
04.11.2014 22:32 9,0 C 7,8 C 96 % 996,6 hPa 0,0 l/m 0 min 2 min 0 W/m 2,1 km/h (1 Bft)
04.11.2014 22:34 9,0 C 7,8 C 96 % 996,6 hPa 0,0 l/m 0 min 2 min 0 W/m 2,1 km/h (1 Bft)
04.11.2014 22:36 9,0 C 7,8 C 96 % 996,6 hPa 0,0 l/m 0 min 2 min 0 W/m 2,1 km/h (1 Bft)
04.11.2014 22:38 9,0 C 7,8 C 96 % 996,7 hPa 0,0 l/m 0 min 2 min 0 W/m 2,1 km/h (1 Bft)
04.11.2014 22:40 8,9 C 7,8 C 96 % 996,7 hPa 0,0 l/m 0 min 2 min 0 W/m 2,1 km/h (1 Bft)
04.11.2014 22:42 8,9 C 7,8 C 96 % 996,7 hPa 0,0 l/m 0 min 2 min 0 W/m 2,1 km/h (1 Bft)
04.11.2014 22:44 8,9 C 7,8 C 96 % 996,6 hPa 0,0 l/m 0 min 2 min 0 W/m 2,1 km/h (1 Bft)
04.11.2014 22:46 8,9 C 7,8 C 96 % 996,4 hPa 0,0 l/m 0 min 2 min 0 W/m 2,1 km/h (1 Bft)
04.11.2014 22:48 8,9 C 7,8 C 96 % 996,4 hPa 0,0 l/m 0 min 2 min 0 W/m 2,1 km/h (1 Bft)
04.11.2014 22:50 8,9 C 7,8 C 96 % 996,5 hPa 0,0 l/m 0 min 2 min 0 W/m 2,1 km/h (1 Bft)
04.11.2014 22:52 8,9 C 7,8 C 96 % 996,5 hPa 0,0 l/m 0 min 2 min 0 W/m 2,1 km/h (1 Bft)
04.11.2014 22:54 8,9 C 7,8 C 96 % 996,5 hPa 0,0 l/m 0 min 2 min 0 W/m 2,1 km/h (1 Bft)
04.11.2014 22:56 8,9 C 7,8 C 96 % 996,6 hPa 0,0 l/m 0 min 2 min 0 W/m 0,0 km/h (0 Bft)
04.11.2014 22:58 8,9 C 7,8 C 96 % 996,6 hPa 0,0 l/m 0 min 2 min 0 W/m 0,0 km/h (0 Bft)
04.11.2014 23:00 8,9 C 7,8 C 96 % 996,6 hPa 0,0 l/m 0 min 2 min 0 W/m 0,0 km/h (0 Bft)
04.11.2014 23:02 8,9 C 7,8 C 96 % 996,6 hPa 0,0 l/m 0 min 2 min 0 W/m 0,0 km/h (0 Bft)
04.11.2014 23:04 8,9 C 7,8 C 96 % 996,6 hPa 0,0 l/m 0 min 0 min 0 W/m 0,0 km/h (0 Bft)
04.11.2014 23:06 8,9 C 7,8 C 96 % 996,7 hPa 0,0 l/m 0 min 0 min 0 W/m 0,0 km/h (0 Bft)
04.11.2014 23:08 8,9 C 7,8 C 96 % 996,7 hPa 0,0 l/m 0 min 0 min 0 W/m 2,1 km/h (1 Bft)
04.11.2014 23:10 8,8 C 7,8 C 96 % 996,7 hPa 0,0 l/m 0 min 0 min 0 W/m 2,1 km/h (1 Bft)
04.11.2014 23:12 8,8 C 7,8 C 96 % 996,8 hPa 0,0 l/m 0 min 0 min 0 W/m 2,1 km/h (1 Bft)
04.11.2014 23:14 8,8 C 7,8 C 96 % 996,8 hPa 0,0 l/m 0 min 0 min 0 W/m 0,0 km/h (0 Bft)
04.11.2014 23:16 8,8 C 7,8 C 96 % 996,9 hPa 0,0 l/m 0 min 0 min 0 W/m 2,1 km/h (1 Bft)
04.11.2014 23:18 8,8 C 7,8 C 96 % 996,8 hPa 0,0 l/m 0 min 0 min 0 W/m 2,1 km/h (1 Bft)
04.11.2014 23:20 8,8 C 7,8 C 96 % 996,7 hPa 0,0 l/m 0 min 0 min 0 W/m 2,1 km/h (1 Bft)
04.11.2014 23:22 8,8 C 7,8 C 96 % 996,7 hPa 0,0 l/m 0 min 0 min 0 W/m 2,1 km/h (1 Bft)
04.11.2014 23:24 8,8 C 7,8 C 96 % 996,6 hPa 0,0 l/m 0 min 0 min 0 W/m 2,1 km/h (1 Bft)
04.11.2014 23:26 8,8 C 7,8 C 96 % 996,7 hPa 0,0 l/m 0 min 0 min 0 W/m 2,1 km/h (1 Bft)
04.11.2014 23:28 8,8 C 7,8 C 96 % 996,7 hPa 0,0 l/m 0 min 0 min 0 W/m 2,1 km/h (1 Bft)
04.11.2014 23:30 8,7 C 7,8 C 96 % 996,7 hPa 0,0 l/m 0 min 0 min 0 W/m 2,1 km/h (1 Bft)
04.11.2014 23:32 8,7 C 7,8 C 96 % 996,8 hPa 0,0 l/m 0 min 0 min 0 W/m 2,1 km/h (1 Bft)
04.11.2014 23:34 8,7 C 7,8 C 96 % 996,8 hPa 0,0 l/m 0 min 0 min 0 W/m 2,1 km/h (1 Bft)
04.11.2014 23:36 8,7 C 7,8 C 96 % 997,0 hPa 0,0 l/m 0 min 0 min 0 W/m 2,1 km/h (1 Bft)
04.11.2014 23:38 8,7 C 7,8 C 96 % 996,9 hPa 0,0 l/m 0 min 0 min 0 W/m 4,2 km/h (1 Bft)
04.11.2014 23:40 8,7 C 7,8 C 96 % 996,9 hPa 0,0 l/m 0 min 0 min 0 W/m 2,1 km/h (1 Bft)
04.11.2014 23:42 8,7 C 7,8 C 96 % 997,1 hPa 0,0 l/m 0 min 0 min 0 W/m 2,1 km/h (1 Bft)
04.11.2014 23:44 8,7 C 7,8 C 96 % 997,0 hPa 0,0 l/m 0 min 0 min 0 W/m 2,1 km/h (1 Bft)
04.11.2014 23:46 8,7 C 7,8 C 96 % 997,0 hPa 0,0 l/m 0 min 2 min 0 W/m 2,1 km/h (1 Bft)
04.11.2014 23:48 8,7 C 7,8 C 96 % 997,0 hPa 0,0 l/m 0 min 0 min 0 W/m 2,1 km/h (1 Bft)
04.11.2014 23:50 8,7 C 7,8 C 96 % 997,1 hPa 0,0 l/m 0 min 0 min 0 W/m 2,1 km/h (1 Bft)
04.11.2014 23:52 8,7 C 7,8 C 96 % 997,1 hPa 0,0 l/m 0 min 0 min 0 W/m 2,1 km/h (1 Bft)
04.11.2014 23:54 8,7 C 7,2 C 96 % 997,2 hPa 0,0 l/m 0 min 0 min 0 W/m 2,1 km/h (1 Bft)
04.11.2014 23:56 8,7 C 7,2 C 96 % 997,2 hPa 0,0 l/m 0 min 2 min 0 W/m 2,1 km/h (1 Bft)
04.11.2014 23:58 8,7 C 7,2 C 96 % 997,1 hPa 0,0 l/m 0 min 2 min 0 W/m 2,1 km/h (1 Bft)
_ Min-Zeit 23:28 23:54 00:00 04:44 - - - - 07:02
Minimum _ 8,7 C 7,2 C 90 % 992,6 hPa - - - - 0,0 km/h (0 Bft)
_ Max-Zeit 13:40 11:08 09:18 23:54 00:05 00:00 00:00 11:18 10:24
Maximum _ 11,2 C 10,6 C 98 % 997,2 hPa 0,4 l/m 0 min 2 min 155 W/m 18,8 km/h
S (3 Bft)
Durchschnitt _ 9,8 C 8,8 C 96 % 994,9 hPa #5,2 l/m #0 min. #14:56 h 67 W/m 7,0 km/h (2 Bft)
© 2014 W. Hausmann